Wetterdaten: Sonntag, 02.03.2014
Datum Zeit Temp. Aussen +5cm Feuchte Auss Luftdruck Regen Sonnenschein Regendauer UV Solar Windben
02.03.2014 00:00 4,9 C 3,3 C 92 % 1001,2 hPa 0,0 l/m 0 min 0 min 0,0 UV-I 0 W/m 12,9 km/h (3 Bft)
02.03.2014 00:02 5,0 C 3,3 C 92 % 1001,3 hPa 0,0 l/m 0 min 0 min 0,0 UV-I 0 W/m 7,7 km/h (2 Bft)
02.03.2014 00:06 5,0 C 3,3 C 92 % 1001,2 hPa 0,0 l/m 0 min 0 min 0,0 UV-I 0 W/m 5,1 km/h (1 Bft)
02.03.2014 00:08 5,0 C 3,3 C 92 % 1001,2 hPa 0,0 l/m 0 min 0 min 0,0 UV-I 0 W/m 5,1 km/h (1 Bft)
02.03.2014 00:10 5,0 C 3,3 C 92 % 1001,2 hPa 0,0 l/m 0 min 0 min 0,0 UV-I 0 W/m 10,3 km/h (2 Bft)
02.03.2014 00:12 5,0 C 3,9 C 92 % 1001,2 hPa 0,0 l/m 0 min 0 min 0,0 UV-I 0 W/m 7,7 km/h (2 Bft)
02.03.2014 00:14 5,0 C 3,9 C 92 % 1001,2 hPa 0,0 l/m 0 min 0 min 0,0 UV-I 0 W/m 5,1 km/h (1 Bft)
02.03.2014 00:16 5,1 C 3,9 C 92 % 1001,2 hPa 0,0 l/m 0 min 0 min 0,0 UV-I 0 W/m 7,7 km/h (2 Bft)
02.03.2014 00:18 5,1 C 3,9 C 92 % 1001,3 hPa 0,0 l/m 0 min 0 min 0,0 UV-I 0 W/m 7,7 km/h (2 Bft)
02.03.2014 00:20 5,1 C 3,9 C 92 % 1001,3 hPa 0,0 l/m 0 min 0 min 0,0 UV-I 0 W/m 2,6 km/h (1 Bft)
02.03.2014 00:22 5,1 C 3,9 C 92 % 1001,3 hPa 0,0 l/m 0 min 0 min 0,0 UV-I 0 W/m 7,7 km/h (2 Bft)
02.03.2014 00:24 5,1 C 3,9 C 92 % 1001,3 hPa 0,0 l/m 0 min 0 min 0,0 UV-I 0 W/m 0,0 km/h (0 Bft)
02.03.2014 00:26 5,1 C 3,9 C 92 % 1001,3 hPa 0,0 l/m 0 min 0 min 0,0 UV-I 0 W/m 2,6 km/h (1 Bft)
02.03.2014 00:28 5,1 C 3,9 C 92 % 1001,4 hPa 0,0 l/m 0 min 0 min 0,0 UV-I 0 W/m 0,0 km/h (0 Bft)
02.03.2014 00:30 5,1 C 3,9 C 92 % 1001,3 hPa 0,0 l/m 0 min 0 min 0,0 UV-I 0 W/m 0,0 km/h (0 Bft)
02.03.2014 00:32 5,1 C 3,9 C 92 % 1001,4 hPa 0,0 l/m 0 min 0 min 0,0 UV-I 0 W/m 7,7 km/h (2 Bft)
02.03.2014 00:34 5,1 C 3,9 C 92 % 1001,4 hPa 0,0 l/m 0 min 0 min 0,0 UV-I 0 W/m 0,0 km/h (0 Bft)
02.03.2014 00:36 5,1 C 3,9 C 92 % 1001,3 hPa 0,0 l/m 0 min 0 min 0,0 UV-I 0 W/m 7,7 km/h (2 Bft)
02.03.2014 00:38 5,1 C 3,9 C 93 % 1001,3 hPa 0,0 l/m 0 min 0 min 0,0 UV-I 0 W/m 0,0 km/h (0 Bft)
02.03.2014 00:40 5,1 C 3,9 C 93 % 1001,4 hPa 0,0 l/m 0 min 0 min 0,0 UV-I 0 W/m 2,6 km/h (1 Bft)
02.03.2014 00:42 5,1 C 3,9 C 93 % 1001,4 hPa 0,0 l/m 0 min 0 min 0,0 UV-I 0 W/m 0,0 km/h (0 Bft)
02.03.2014 00:44 5,1 C 3,9 C 93 % 1001,4 hPa 0,0 l/m 0 min 0 min 0,0 UV-I 0 W/m 7,7 km/h (2 Bft)
02.03.2014 00:46 5,1 C 3,9 C 93 % 1001,4 hPa 0,0 l/m 0 min 0 min 0,0 UV-I 0 W/m 0,0 km/h (0 Bft)
02.03.2014 00:48 5,1 C 3,9 C 93 % 1001,4 hPa 0,0 l/m 0 min 0 min 0,0 UV-I 0 W/m 0,0 km/h (0 Bft)
02.03.2014 00:50 5,1 C 3,9 C 93 % 1001,5 hPa 0,0 l/m 0 min 0 min 0,0 UV-I 0 W/m 5,1 km/h (1 Bft)
02.03.2014 00:52 5,1 C 3,9 C 93 % 1001,4 hPa 0,0 l/m 0 min 0 min 0,0 UV-I 0 W/m 0,0 km/h (0 Bft)
02.03.2014 00:54 5,1 C 3,9 C 93 % 1001,3 hPa 0,0 l/m 0 min 0 min 0,0 UV-I 0 W/m 5,1 km/h (1 Bft)
02.03.2014 00:56 5,1 C 3,9 C 93 % 1001,5 hPa 0,0 l/m 0 min 0 min 0,0 UV-I 0 W/m 5,1 km/h (1 Bft)
02.03.2014 00:58 5,1 C 3,9 C 93 % 1001,4 hPa 0,0 l/m 0 min 0 min 0,0 UV-I 0 W/m 0,0 km/h (0 Bft)
02.03.2014 01:00 5,1 C 3,9 C 93 % 1001,4 hPa 0,0 l/m 0 min 0 min 0,0 UV-I 0 W/m 0,0 km/h (0 Bft)
02.03.2014 01:02 5,1 C 3,9 C 93 % 1001,5 hPa 0,0 l/m 0 min 0 min 0,0 UV-I 0 W/m 0,0 km/h (0 Bft)
02.03.2014 01:04 5,1 C 3,9 C 93 % 1001,4 hPa 0,0 l/m 0 min 0 min 0,0 UV-I 0 W/m 5,1 km/h (1 Bft)
02.03.2014 01:06 5,1 C 3,9 C 93 % 1001,4 hPa 0,0 l/m 0 min 0 min 0,0 UV-I 0 W/m 7,7 km/h (2 Bft)
02.03.2014 01:08 5,1 C 3,9 C 93 % 1001,5 hPa 0,0 l/m 0 min 0 min 0,0 UV-I 0 W/m 0,0 km/h (0 Bft)
02.03.2014 01:10 5,1 C 3,9 C 94 % 1001,4 hPa 0,0 l/m 0 min 0 min 0,0 UV-I 0 W/m 2,6 km/h (1 Bft)
02.03.2014 01:12 5,1 C 3,9 C 94 % 1001,5 hPa 0,0 l/m 0 min 0 min 0,0 UV-I 0 W/m 0,0 km/h (0 Bft)
02.03.2014 01:14 5,1 C 3,9 C 94 % 1001,5 hPa 0,0 l/m 0 min 0 min 0,0 UV-I 0 W/m 0,0 km/h (0 Bft)
02.03.2014 01:16 5,1 C 3,9 C 94 % 1001,5 hPa 0,0 l/m 0 min 0 min 0,0 UV-I 0 W/m 0,0 km/h (0 Bft)
02.03.2014 01:18 5,0 C 3,9 C 93 % 1001,6 hPa 0,0 l/m 0 min 0 min 0,0 UV-I 0 W/m 0,0 km/h (0 Bft)
02.03.2014 01:20 5,0 C 3,3 C 93 % 1001,6 hPa 0,0 l/m 0 min 0 min 0,0 UV-I 0 W/m 0,0 km/h (0 Bft)
02.03.2014 01:22 5,0 C 3,3 C 93 % 1001,6 hPa 0,0 l/m 0 min 0 min 0,0 UV-I 0 W/m 7,7 km/h (2 Bft)
02.03.2014 01:24 4,9 C 3,3 C 93 % 1001,6 hPa 0,0 l/m 0 min 0 min 0,0 UV-I 0 W/m 0,0 km/h (0 Bft)
02.03.2014 01:26 4,9 C 3,3 C 93 % 1001,6 hPa 0,0 l/m 0 min 0 min 0,0 UV-I 0 W/m 0,0 km/h (0 Bft)
02.03.2014 01:28 4,9 C 3,3 C 93 % 1001,6 hPa 0,0 l/m 0 min 0 min 0,0 UV-I 0 W/m 0,0 km/h (0 Bft)
02.03.2014 01:30 4,9 C 3,3 C 94 % 1001,6 hPa 0,0 l/m 0 min 0 min 0,0 UV-I 0 W/m 10,3 km/h (2 Bft)
02.03.2014 01:32 4,8 C 3,3 C 94 % 1001,6 hPa 0,0 l/m 0 min 0 min 0,0 UV-I 0 W/m 12,9 km/h (3 Bft)
02.03.2014 01:34 4,8 C 3,3 C 94 % 1001,6 hPa 0,0 l/m 0 min 0 min 0,0 UV-I 0 W/m 7,7 km/h (2 Bft)
02.03.2014 01:36 4,8 C 3,3 C 94 % 1001,6 hPa 0,0 l/m 0 min 0 min 0,0 UV-I 0 W/m 0,0 km/h (0 Bft)
02.03.2014 01:38 4,8 C 3,3 C 94 % 1001,6 hPa 0,0 l/m 0 min 0 min 0,0 UV-I 0 W/m 0,0 km/h (0 Bft)
02.03.2014 01:40 4,8 C 3,3 C 94 % 1001,6 hPa 0,0 l/m 0 min 0 min 0,0 UV-I 0 W/m 2,6 km/h (1 Bft)
02.03.2014 01:42 4,7 C 3,3 C 94 % 1001,6 hPa 0,0 l/m 0 min 0 min 0,0 UV-I 0 W/m 0,0 km/h (0 Bft)
02.03.2014 01:44 4,7 C 3,3 C 94 % 1001,6 hPa 0,0 l/m 0 min 0 min 0,0 UV-I 0 W/m 5,1 km/h (1 Bft)
02.03.2014 01:46 4,7 C 3,3 C 94 % 1001,6 hPa 0,0 l/m 0 min 0 min 0,0 UV-I 0 W/m 0,0 km/h (0 Bft)
02.03.2014 01:48 4,7 C 3,3 C 94 % 1001,6 hPa 0,0 l/m 0 min 0 min 0,0 UV-I 0 W/m 0,0 km/h (0 Bft)
02.03.2014 01:50 4,6 C 3,3 C 94 % 1001,6 hPa 0,0 l/m 0 min 0 min 0,0 UV-I 0 W/m 0,0 km/h (0 Bft)
02.03.2014 01:52 4,6 C 3,3 C 94 % 1001,7 hPa 0,0 l/m 0 min 0 min 0,0 UV-I 0 W/m 2,6 km/h (1 Bft)
02.03.2014 01:54 4,6 C 3,3 C 94 % 1001,7 hPa 0,0 l/m 0 min 0 min 0,0 UV-I 0 W/m 0,0 km/h (0 Bft)
02.03.2014 01:56 4,6 C 3,3 C 94 % 1001,7 hPa 0,0 l/m 0 min 0 min 0,0 UV-I 0 W/m 5,1 km/h (1 Bft)
02.03.2014 01:58 4,6 C 3,3 C 94 % 1001,7 hPa 0,0 l/m 0 min 0 min 0,0 UV-I 0 W/m 0,0 km/h (0 Bft)
02.03.2014 02:00 4,6 C 3,3 C 94 % 1001,7 hPa 0,0 l/m 0 min 0 min 0,0 UV-I 0 W/m 0,0 km/h (0 Bft)
02.03.2014 02:02 4,6 C 3,3 C 94 % 1001,7 hPa 0,0 l/m 0 min 0 min 0,0 UV-I 0 W/m 0,0 km/h (0 Bft)
02.03.2014 02:04 4,6 C 3,3 C 94 % 1001,7 hPa 0,0 l/m 0 min 0 min 0,0 UV-I 0 W/m 5,1 km/h (1 Bft)
02.03.2014 02:06 4,6 C 3,3 C 94 % 1001,8 hPa 0,0 l/m 0 min 0 min 0,0 UV-I 0 W/m 5,1 km/h (1 Bft)
02.03.2014 02:08 4,6 C 3,3 C 94 % 1001,8 hPa 0,0 l/m 0 min 0 min 0,0 UV-I 0 W/m 0,0 km/h (0 Bft)
02.03.2014 02:10 4,6 C 2,8 C 94 % 1001,8 hPa 0,0 l/m 0 min 0 min 0,0 UV-I 0 W/m 5,1 km/h (1 Bft)
02.03.2014 02:12 4,6 C 2,8 C 94 % 1001,8 hPa 0,0 l/m 0 min 0 min 0,0 UV-I 0 W/m 0,0 km/h (0 Bft)
02.03.2014 02:14 4,5 C 2,8 C 94 % 1001,7 hPa 0,0 l/m 0 min 0 min 0,0 UV-I 0 W/m 0,0 km/h (0 Bft)
02.03.2014 02:16 4,4 C 2,8 C 94 % 1001,8 hPa 0,0 l/m 0 min 0 min 0,0 UV-I 0 W/m 2,6 km/h (1 Bft)
02.03.2014 02:18 4,4 C 2,8 C 94 % 1001,8 hPa 0,0 l/m 0 min 0 min 0,0 UV-I 0 W/m 0,0 km/h (0 Bft)
02.03.2014 02:20 4,4 C 2,8 C 94 % 1001,8 hPa 0,0 l/m 0 min 0 min 0,0 UV-I 0 W/m 5,1 km/h (1 Bft)
02.03.2014 02:22 4,4 C 2,8 C 94 % 1001,8 hPa 0,0 l/m 0 min 0 min 0,0 UV-I 0 W/m 7,7 km/h (2 Bft)
02.03.2014 02:24 4,4 C 3,3 C 94 % 1001,9 hPa 0,0 l/m 0 min 0 min 0,0 UV-I 0 W/m 0,0 km/h (0 Bft)
02.03.2014 02:26 4,5 C 3,3 C 94 % 1001,9 hPa 0,0 l/m 0 min 0 min 0,0 UV-I 0 W/m 0,0 km/h (0 Bft)
02.03.2014 02:28 4,5 C 3,3 C 94 % 1001,9 hPa 0,0 l/m 0 min 0 min 0,0 UV-I 0 W/m 7,7 km/h (2 Bft)
02.03.2014 02:30 4,5 C 3,3 C 94 % 1001,9 hPa 0,0 l/m 0 min 0 min 0,0 UV-I 0 W/m 0,0 km/h (0 Bft)
02.03.2014 02:32 4,5 C 3,3 C 94 % 1001,9 hPa 0,0 l/m 0 min 0 min 0,0 UV-I 0 W/m 7,7 km/h (2 Bft)
02.03.2014 02:34 4,5 C 3,3 C 94 % 1001,9 hPa 0,0 l/m 0 min 0 min 0,0 UV-I 0 W/m 5,1 km/h (1 Bft)
02.03.2014 02:36 4,6 C 3,3 C 94 % 1001,8 hPa 0,0 l/m 0 min 0 min 0,0 UV-I 0 W/m 10,3 km/h (2 Bft)
02.03.2014 02:38 4,6 C 3,3 C 94 % 1001,9 hPa 0,0 l/m 0 min 0 min 0,0 UV-I 0 W/m 7,7 km/h (2 Bft)
02.03.2014 02:40 4,6 C 3,3 C 94 % 1001,9 hPa 0,0 l/m 0 min 0 min 0,0 UV-I 0 W/m 7,7 km/h (2 Bft)
02.03.2014 02:42 4,6 C 3,3 C 94 % 1001,8 hPa 0,0 l/m 0 min 0 min 0,0 UV-I 0 W/m 0,0 km/h (0 Bft)
02.03.2014 02:44 4,5 C 3,3 C 94 % 1001,8 hPa 0,0 l/m 0 min 0 min 0,0 UV-I 0 W/m 0,0 km/h (0 Bft)
02.03.2014 02:46 4,5 C 3,3 C 94 % 1001,8 hPa 0,0 l/m 0 min 0 min 0,0 UV-I 0 W/m 7,7 km/h (2 Bft)
02.03.2014 02:48 4,4 C 3,3 C 94 % 1001,8 hPa 0,0 l/m 0 min 0 min 0,0 UV-I 0 W/m 5,1 km/h (1 Bft)
02.03.2014 02:50 4,4 C 3,3 C 94 % 1001,7 hPa 0,0 l/m 0 min 0 min 0,0 UV-I 0 W/m 2,6 km/h (1 Bft)
02.03.2014 02:52 4,4 C 3,3 C 94 % 1001,8 hPa 0,0 l/m 0 min 0 min 0,0 UV-I 0 W/m 2,6 km/h (1 Bft)
02.03.2014 02:54 4,4 C 3,3 C 94 % 1001,8 hPa 0,0 l/m 0 min 0 min 0,0 UV-I 0 W/m 7,7 km/h (2 Bft)
02.03.2014 02:56 4,4 C 3,3 C 94 % 1001,7 hPa 0,0 l/m 0 min 0 min 0,0 UV-I 0 W/m 5,1 km/h (1 Bft)
02.03.2014 02:58 4,3 C 3,3 C 94 % 1001,8 hPa 0,0 l/m 0 min 0 min 0,0 UV-I 0 W/m 0,0 km/h (0 Bft)
02.03.2014 03:00 4,3 C 3,3 C 94 % 1001,9 hPa 0,0 l/m 0 min 0 min 0,0 UV-I 0 W/m 7,7 km/h (2 Bft)
02.03.2014 03:02 4,3 C 3,3 C 94 % 1001,8 hPa 0,0 l/m 0 min 0 min 0,0 UV-I 0 W/m 7,7 km/h (2 Bft)
02.03.2014 03:04 4,3 C 3,3 C 94 % 1001,8 hPa 0,0 l/m 0 min 0 min 0,0 UV-I 0 W/m 12,9 km/h (3 Bft)
02.03.2014 03:06 4,3 C 2,8 C 94 % 1001,9 hPa 0,0 l/m 0 min 0 min 0,0 UV-I 0 W/m 7,7 km/h (2 Bft)
02.03.2014 03:08 4,3 C 2,8 C 94 % 1001,8 hPa 0,0 l/m 0 min 0 min 0,0 UV-I 0 W/m 0,0 km/h (0 Bft)
02.03.2014 03:10 4,2 C 2,8 C 94 % 1001,8 hPa 0,0 l/m 0 min 0 min 0,0 UV-I 0 W/m 0,0 km/h (0 Bft)
02.03.2014 03:12 4,2 C 2,8 C 94 % 1001,8 hPa 0,0 l/m 0 min 0 min 0,0 UV-I 0 W/m 5,1 km/h (1 Bft)
02.03.2014 03:14 4,2 C 2,8 C 94 % 1001,9 hPa 0,0 l/m 0 min 0 min 0,0 UV-I 0 W/m 5,1 km/h (1 Bft)
02.03.2014 03:16 4,2 C 2,8 C 94 % 1001,8 hPa 0,0 l/m 0 min 0 min 0,0 UV-I 0 W/m 0,0 km/h (0 Bft)
02.03.2014 03:18 4,2 C 2,8 C 94 % 1001,8 hPa 0,0 l/m 0 min 0 min 0,0 UV-I 0 W/m 0,0 km/h (0 Bft)
02.03.2014 03:20 4,2 C 2,8 C 94 % 1001,8 hPa 0,0 l/m 0 min 0 min 0,0 UV-I 0 W/m 0,0 km/h (0 Bft)
02.03.2014 03:22 4,2 C 2,8 C 94 % 1001,9 hPa 0,0 l/m 0 min 0 min 0,0 UV-I 0 W/m 2,6 km/h (1 Bft)
02.03.2014 03:24 4,1 C 2,8 C 94 % 1001,8 hPa 0,0 l/m 0 min 0 min 0,0 UV-I 0 W/m 5,1 km/h (1 Bft)
02.03.2014 03:26 4,1 C 2,8 C 94 % 1001,8 hPa 0,0 l/m 0 min 0 min 0,0 UV-I 0 W/m 2,6 km/h (1 Bft)
02.03.2014 03:28 4,1 C 2,8 C 94 % 1001,8 hPa 0,0 l/m 0 min 0 min 0,0 UV-I 0 W/m 0,0 km/h (0 Bft)
02.03.2014 03:30 4,1 C 2,8 C 94 % 1001,8 hPa 0,0 l/m 0 min 0 min 0,0 UV-I 0 W/m 7,7 km/h (2 Bft)
02.03.2014 03:32 4,0 C 2,8 C 94 % 1001,7 hPa 0,0 l/m 0 min 0 min 0,0 UV-I 0 W/m 7,7 km/h (2 Bft)
02.03.2014 03:34 4,0 C 2,8 C 94 % 1001,7 hPa 0,0 l/m 0 min 0 min 0,0 UV-I 0 W/m 2,6 km/h (1 Bft)
02.03.2014 03:36 4,0 C 2,8 C 94 % 1001,7 hPa 0,0 l/m 0 min 0 min 0,0 UV-I 0 W/m 0,0 km/h (0 Bft)
02.03.2014 03:38 3,9 C 2,2 C 94 % 1001,8 hPa 0,0 l/m 0 min 0 min 0,0 UV-I 0 W/m 2,6 km/h (1 Bft)
02.03.2014 03:40 3,9 C 2,8 C 94 % 1001,8 hPa 0,0 l/m 0 min 0 min 0,0 UV-I 0 W/m 5,1 km/h (1 Bft)
02.03.2014 03:42 3,9 C 2,2 C 94 % 1001,8 hPa 0,0 l/m 0 min 0 min 0,0 UV-I 0 W/m 0,0 km/h (0 Bft)
02.03.2014 03:44 3,9 C 2,2 C 94 % 1001,8 hPa 0,0 l/m 0 min 0 min 0,0 UV-I 0 W/m 0,0 km/h (0 Bft)
02.03.2014 03:46 3,9 C 2,2 C 94 % 1001,8 hPa 0,0 l/m 0 min 0 min 0,0 UV-I 0 W/m 5,1 km/h (1 Bft)
02.03.2014 03:48 3,8 C 2,2 C 94 % 1001,8 hPa 0,0 l/m 0 min 0 min 0,0 UV-I 0 W/m 7,7 km/h (2 Bft)
02.03.2014 03:50 3,8 C 2,2 C 94 % 1001,8 hPa 0,0 l/m 0 min 0 min 0,0 UV-I 0 W/m 2,6 km/h (1 Bft)
02.03.2014 03:52 3,8 C 2,2 C 94 % 1001,8 hPa 0,0 l/m 0 min 0 min 0,0 UV-I 0 W/m 5,1 km/h (1 Bft)
02.03.2014 03:54 3,8 C 2,2 C 94 % 1001,8 hPa 0,0 l/m 0 min 0 min 0,0 UV-I 0 W/m 0,0 km/h (0 Bft)
02.03.2014 03:56 3,7 C 2,2 C 94 % 1001,8 hPa 0,0 l/m 0 min 0 min 0,0 UV-I 0 W/m 0,0 km/h (0 Bft)
02.03.2014 03:58 3,7 C 2,2 C 94 % 1001,9 hPa 0,0 l/m 0 min 0 min 0,0 UV-I 0 W/m 0,0 km/h (0 Bft)
02.03.2014 04:00 3,7 C 2,2 C 94 % 1001,8 hPa 0,0 l/m 0 min 0 min 0,0 UV-I 0 W/m 0,0 km/h (0 Bft)
02.03.2014 04:02 3,7 C 2,2 C 94 % 1001,8 hPa 0,0 l/m 0 min 0 min 0,0 UV-I 0 W/m 5,1 km/h (1 Bft)
02.03.2014 04:04 3,7 C 2,2 C 94 % 1001,8 hPa 0,0 l/m 0 min 0 min 0,0 UV-I 0 W/m 0,0 km/h (0 Bft)
02.03.2014 04:06 3,7 C 2,2 C 94 % 1001,8 hPa 0,0 l/m 0 min 0 min 0,0 UV-I 0 W/m 5,1 km/h (1 Bft)
02.03.2014 04:08 3,6 C 2,2 C 94 % 1001,9 hPa 0,0 l/m 0 min 0 min 0,0 UV-I 0 W/m 0,0 km/h (0 Bft)
02.03.2014 04:10 3,6 C 2,2 C 94 % 1001,9 hPa 0,0 l/m 0 min 0 min 0,0 UV-I 0 W/m 2,6 km/h (1 Bft)
02.03.2014 04:12 3,6 C 2,2 C 94 % 1001,9 hPa 0,0 l/m 0 min 0 min 0,0 UV-I 0 W/m 0,0 km/h (0 Bft)
02.03.2014 04:14 3,6 C 2,2 C 95 % 1001,9 hPa 0,0 l/m 0 min 0 min 0,0 UV-I 0 W/m 0,0 km/h (0 Bft)
02.03.2014 04:16 3,5 C 1,7 C 95 % 1001,9 hPa 0,0 l/m 0 min 0 min 0,0 UV-I 0 W/m 0,0 km/h (0 Bft)
02.03.2014 04:18 3,4 C 1,7 C 94 % 1001,9 hPa 0,0 l/m 0 min 0 min 0,0 UV-I 0 W/m 0,0 km/h (0 Bft)
02.03.2014 04:20 3,4 C 1,7 C 94 % 1002,0 hPa 0,0 l/m 0 min 0 min 0,0 UV-I 0 W/m 0,0 km/h (0 Bft)
02.03.2014 04:22 3,4 C 1,7 C 94 % 1002,0 hPa 0,0 l/m 0 min 0 min 0,0 UV-I 0 W/m 0,0 km/h (0 Bft)
02.03.2014 04:24 3,4 C 1,7 C 94 % 1002,0 hPa 0,0 l/m 0 min 0 min 0,0 UV-I 0 W/m 0,0 km/h (0 Bft)
02.03.2014 04:26 3,4 C 1,7 C 95 % 1002,0 hPa 0,0 l/m 0 min 0 min 0,0 UV-I 0 W/m 5,1 km/h (1 Bft)
02.03.2014 04:28 3,4 C 1,7 C 95 % 1002,1 hPa 0,0 l/m 0 min 0 min 0,0 UV-I 0 W/m 0,0 km/h (0 Bft)
02.03.2014 04:30 3,3 C 1,7 C 95 % 1002,2 hPa 0,0 l/m 0 min 0 min 0,0 UV-I 0 W/m 0,0 km/h (0 Bft)
02.03.2014 04:32 3,3 C 2,2 C 95 % 1002,2 hPa 0,0 l/m 0 min 0 min 0,0 UV-I 0 W/m 0,0 km/h (0 Bft)
02.03.2014 04:34 3,3 C 1,7 C 95 % 1002,2 hPa 0,0 l/m 0 min 0 min 0,0 UV-I 0 W/m 0,0 km/h (0 Bft)
02.03.2014 04:36 3,3 C 1,7 C 95 % 1002,3 hPa 0,0 l/m 0 min 0 min 0,0 UV-I 0 W/m 0,0 km/h (0 Bft)
02.03.2014 04:38 3,3 C 1,7 C 95 % 1002,3 hPa 0,0 l/m 0 min 0 min 0,0 UV-I 0 W/m 0,0 km/h (0 Bft)
02.03.2014 04:40 3,2 C 1,7 C 95 % 1002,3 hPa 0,0 l/m 0 min 0 min 0,0 UV-I 0 W/m 0,0 km/h (0 Bft)
02.03.2014 04:42 3,2 C 1,7 C 95 % 1002,3 hPa 0,0 l/m 0 min 0 min 0,0 UV-I 0 W/m 2,6 km/h (1 Bft)
02.03.2014 04:44 3,2 C 1,7 C 95 % 1002,3 hPa 0,0 l/m 0 min 0 min 0,0 UV-I 0 W/m 5,1 km/h (1 Bft)
02.03.2014 04:46 3,2 C 1,7 C 95 % 1002,3 hPa 0,0 l/m 0 min 0 min 0,0 UV-I 0 W/m 2,6 km/h (1 Bft)
02.03.2014 04:48 3,2 C 1,7 C 95 % 1002,3 hPa 0,0 l/m 0 min 0 min 0,0 UV-I 0 W/m 0,0 km/h (0 Bft)
02.03.2014 04:50 3,2 C 1,7 C 95 % 1002,3 hPa 0,0 l/m 0 min 0 min 0,0 UV-I 0 W/m 2,6 km/h (1 Bft)
02.03.2014 04:52 3,2 C 1,7 C 95 % 1002,3 hPa 0,0 l/m 0 min 0 min 0,0 UV-I 0 W/m 0,0 km/h (0 Bft)
02.03.2014 04:54 3,2 C 1,7 C 95 % 1002,3 hPa 0,0 l/m 0 min 0 min 0,0 UV-I 0 W/m 0,0 km/h (0 Bft)
02.03.2014 04:56 3,2 C 1,7 C 95 % 1002,3 hPa 0,0 l/m 0 min 0 min 0,0 UV-I 0 W/m 0,0 km/h (0 Bft)
02.03.2014 04:58 3,1 C 1,7 C 95 % 1002,3 hPa 0,0 l/m 0 min 0 min 0,0 UV-I 0 W/m 0,0 km/h (0 Bft)
02.03.2014 05:00 3,1 C 1,7 C 95 % 1002,3 hPa 0,0 l/m 0 min 0 min 0,0 UV-I 0 W/m 0,0 km/h (0 Bft)
02.03.2014 05:02 3,1 C 1,7 C 95 % 1002,3 hPa 0,0 l/m 0 min 0 min 0,0 UV-I 0 W/m 0,0 km/h (0 Bft)
02.03.2014 05:04 3,1 C 1,7 C 95 % 1002,3 hPa 0,0 l/m 0 min 0 min 0,0 UV-I 0 W/m 0,0 km/h (0 Bft)
02.03.2014 05:06 3,1 C 1,7 C 95 % 1002,3 hPa 0,0 l/m 0 min 0 min 0,0 UV-I 0 W/m 0,0 km/h (0 Bft)
02.03.2014 05:08 3,1 C 1,7 C 95 % 1002,4 hPa 0,0 l/m 0 min 0 min 0,0 UV-I 0 W/m 2,6 km/h (1 Bft)
02.03.2014 05:10 3,1 C 1,7 C 95 % 1002,4 hPa 0,0 l/m 0 min 0 min 0,0 UV-I 0 W/m 2,6 km/h (1 Bft)
02.03.2014 05:12 3,1 C 1,7 C 95 % 1002,4 hPa 0,0 l/m 0 min 0 min 0,0 UV-I 0 W/m 0,0 km/h (0 Bft)
02.03.2014 05:14 3,1 C 1,7 C 95 % 1002,5 hPa 0,0 l/m 0 min 0 min 0,0 UV-I 0 W/m 0,0 km/h (0 Bft)
02.03.2014 05:16 3,1 C 1,7 C 95 % 1002,6 hPa 0,0 l/m 0 min 0 min 0,0 UV-I 0 W/m 0,0 km/h (0 Bft)
02.03.2014 05:18 3,0 C 1,7 C 95 % 1002,5 hPa 0,0 l/m 0 min 0 min 0,0 UV-I 0 W/m 2,6 km/h (1 Bft)
02.03.2014 05:20 3,0 C 1,7 C 95 % 1002,5 hPa 0,0 l/m 0 min 0 min 0,0 UV-I 0 W/m 0,0 km/h (0 Bft)
02.03.2014 05:22 3,0 C 1,7 C 95 % 1002,5 hPa 0,0 l/m 0 min 0 min 0,0 UV-I 0 W/m 0,0 km/h (0 Bft)
02.03.2014 05:24 3,0 C 1,7 C 95 % 1002,5 hPa 0,0 l/m 0 min 0 min 0,0 UV-I 0 W/m 0,0 km/h (0 Bft)
02.03.2014 05:26 2,9 C 1,7 C 95 % 1002,5 hPa 0,0 l/m 0 min 0 min 0,0 UV-I 0 W/m 0,0 km/h (0 Bft)
02.03.2014 05:28 2,9 C 1,7 C 95 % 1002,5 hPa 0,0 l/m 0 min 0 min 0,0 UV-I 0 W/m 0,0 km/h (0 Bft)
02.03.2014 05:30 2,9 C 1,7 C 95 % 1002,5 hPa 0,0 l/m 0 min 0 min 0,0 UV-I 0 W/m 5,1 km/h (1 Bft)
02.03.2014 05:32 2,9 C 1,7 C 95 % 1002,5 hPa 0,0 l/m 0 min 0 min 0,0 UV-I 0 W/m 0,0 km/h (0 Bft)
02.03.2014 05:34 2,9 C 1,7 C 95 % 1002,5 hPa 0,0 l/m 0 min 0 min 0,0 UV-I 0 W/m 0,0 km/h (0 Bft)
02.03.2014 05:36 2,9 C 1,7 C 95 % 1002,4 hPa 0,0 l/m 0 min 0 min 0,0 UV-I 0 W/m 0,0 km/h (0 Bft)
02.03.2014 05:38 2,9 C 1,7 C 95 % 1002,4 hPa 0,0 l/m 0 min 0 min 0,0 UV-I 0 W/m 0,0 km/h (0 Bft)
02.03.2014 05:40 2,9 C 1,7 C 95 % 1002,5 hPa 0,0 l/m 0 min 0 min 0,0 UV-I 0 W/m 10,3 km/h (2 Bft)
02.03.2014 05:42 2,9 C 1,7 C 95 % 1002,5 hPa 0,0 l/m 0 min 0 min 0,0 UV-I 0 W/m 0,0 km/h (0 Bft)
02.03.2014 05:44 2,8 C 1,7 C 95 % 1002,5 hPa 0,0 l/m 0 min 0 min 0,0 UV-I 0 W/m 0,0 km/h (0 Bft)
02.03.2014 05:46 2,8 C 1,7 C 95 % 1002,6 hPa 0,0 l/m 0 min 0 min 0,0 UV-I 0 W/m 0,0 km/h (0 Bft)
02.03.2014 05:48 2,8 C 1,7 C 95 % 1002,6 hPa 0,0 l/m 0 min 0 min 0,0 UV-I 0 W/m 0,0 km/h (0 Bft)
02.03.2014 05:50 2,8 C 1,7 C 95 % 1002,6 hPa 0,0 l/m 0 min 0 min 0,0 UV-I 0 W/m 0,0 km/h (0 Bft)
02.03.2014 05:52 2,8 C 1,7 C 95 % 1002,6 hPa 0,0 l/m 0 min 0 min 0,0 UV-I 0 W/m 0,0 km/h (0 Bft)
02.03.2014 05:54 2,8 C 1,7 C 95 % 1002,5 hPa 0,0 l/m 0 min 0 min 0,0 UV-I 0 W/m 0,0 km/h (0 Bft)
02.03.2014 05:56 2,7 C 1,1 C 95 % 1002,6 hPa 0,0 l/m 0 min 0 min 0,0 UV-I 0 W/m 0,0 km/h (0 Bft)
02.03.2014 05:58 2,7 C 1,1 C 95 % 1002,6 hPa 0,0 l/m 0 min 0 min 0,0 UV-I 0 W/m 0,0 km/h (0 Bft)
02.03.2014 06:00 2,7 C 1,1 C 95 % 1002,7 hPa 0,0 l/m 0 min 0 min 0,0 UV-I 0 W/m 0,0 km/h (0 Bft)
02.03.2014 06:02 2,7 C 1,1 C 95 % 1002,8 hPa 0,0 l/m 0 min 0 min 0,0 UV-I 0 W/m 2,6 km/h (1 Bft)
02.03.2014 06:04 2,7 C 1,1 C 95 % 1002,8 hPa 0,0 l/m 0 min 0 min 0,0 UV-I 0 W/m 0,0 km/h (0 Bft)
02.03.2014 06:06 2,7 C 1,1 C 95 % 1002,8 hPa 0,0 l/m 0 min 0 min 0,0 UV-I 0 W/m 0,0 km/h (0 Bft)
02.03.2014 06:08 2,7 C 1,1 C 95 % 1002,9 hPa 0,0 l/m 0 min 0 min 0,0 UV-I 0 W/m 2,6 km/h (1 Bft)
02.03.2014 06:10 2,7 C 1,1 C 95 % 1002,7 hPa 0,0 l/m 0 min 0 min 0,0 UV-I 0 W/m 2,6 km/h (1 Bft)
02.03.2014 06:12 2,7 C 1,1 C 95 % 1002,7 hPa 0,0 l/m 0 min 0 min 0,0 UV-I 0 W/m 0,0 km/h (0 Bft)
02.03.2014 06:14 2,7 C 1,7 C 95 % 1002,7 hPa 0,0 l/m 0 min 0 min 0,0 UV-I 0 W/m 2,6 km/h (1 Bft)
02.03.2014 06:16 2,7 C 1,7 C 95 % 1002,7 hPa 0,0 l/m 0 min 0 min 0,0 UV-I 0 W/m 5,1 km/h (1 Bft)
02.03.2014 06:18 2,7 C 1,7 C 95 % 1002,8 hPa 0,0 l/m 0 min 0 min 0,0 UV-I 0 W/m 0,0 km/h (0 Bft)
02.03.2014 06:20 2,7 C 1,1 C 95 % 1002,7 hPa 0,0 l/m 0 min 0 min 0,0 UV-I 0 W/m 0,0 km/h (0 Bft)
02.03.2014 06:22 2,6 C 1,1 C 95 % 1002,9 hPa 0,0 l/m 0 min 0 min 0,0 UV-I 0 W/m 0,0 km/h (0 Bft)
02.03.2014 06:24 2,7 C 1,1 C 95 % 1002,9 hPa 0,0 l/m 0 min 0 min 0,0 UV-I 0 W/m 7,7 km/h (2 Bft)
02.03.2014 06:26 2,7 C 1,1 C 95 % 1002,9 hPa 0,0 l/m 0 min 0 min 0,0 UV-I 0 W/m 0,0 km/h (0 Bft)
02.03.2014 06:28 2,6 C 1,1 C 95 % 1002,9 hPa 0,0 l/m 0 min 0 min 0,0 UV-I 0 W/m 0,0 km/h (0 Bft)
02.03.2014 06:30 2,6 C 1,1 C 95 % 1003,0 hPa 0,0 l/m 0 min 0 min 0,0 UV-I 0 W/m 0,0 km/h (0 Bft)
02.03.2014 06:32 2,6 C 1,1 C 95 % 1003,0 hPa 0,0 l/m 0 min 0 min 0,0 UV-I 0 W/m 0,0 km/h (0 Bft)
02.03.2014 06:34 2,6 C 1,1 C 95 % 1003,0 hPa 0,0 l/m 0 min 0 min 0,0 UV-I 0 W/m 2,6 km/h (1 Bft)
02.03.2014 06:36 2,6 C 1,1 C 95 % 1002,9 hPa 0,0 l/m 0 min 0 min 0,0 UV-I 0 W/m 0,0 km/h (0 Bft)
02.03.2014 06:38 2,6 C 1,1 C 95 % 1002,9 hPa 0,0 l/m 0 min 0 min 0,0 UV-I 0 W/m 0,0 km/h (0 Bft)
02.03.2014 06:40 2,6 C 1,1 C 95 % 1002,9 hPa 0,0 l/m 0 min 0 min 0,0 UV-I 0 W/m 0,0 km/h (0 Bft)
02.03.2014 06:42 2,6 C 1,1 C 95 % 1003,0 hPa 0,0 l/m 0 min 0 min 0,0 UV-I 0 W/m 0,0 km/h (0 Bft)
02.03.2014 06:44 2,5 C 1,1 C 95 % 1003,0 hPa 0,0 l/m 0 min 0 min 0,0 UV-I 0 W/m 7,7 km/h (2 Bft)
02.03.2014 06:46 2,5 C 1,1 C 95 % 1003,0 hPa 0,0 l/m 0 min 0 min 0,0 UV-I 0 W/m 0,0 km/h (0 Bft)
02.03.2014 06:48 2,5 C 1,1 C 95 % 1003,0 hPa 0,0 l/m 0 min 0 min 0,0 UV-I 0 W/m 0,0 km/h (0 Bft)
02.03.2014 06:50 2,5 C 1,1 C 95 % 1003,1 hPa 0,0 l/m 0 min 0 min 0,0 UV-I 0 W/m 0,0 km/h (0 Bft)
02.03.2014 06:52 2,5 C 1,1 C 95 % 1003,0 hPa 0,0 l/m 0 min 0 min 0,0 UV-I 0 W/m 2,6 km/h (1 Bft)
02.03.2014 06:54 2,4 C 1,1 C 96 % 1003,0 hPa 0,0 l/m 0 min 0 min 0,0 UV-I 0 W/m 0,0 km/h (0 Bft)
02.03.2014 06:56 2,4 C 1,1 C 96 % 1003,0 hPa 0,0 l/m 0 min 0 min 0,0 UV-I 0 W/m 0,0 km/h (0 Bft)
02.03.2014 06:58 2,4 C 1,1 C 96 % 1003,1 hPa 0,0 l/m 0 min 0 min 0,0 UV-I 0 W/m 0,0 km/h (0 Bft)
02.03.2014 07:00 2,4 C 1,1 C 96 % 1003,1 hPa 0,0 l/m 0 min 0 min 0,0 UV-I 0 W/m 0,0 km/h (0 Bft)
02.03.2014 07:02 2,4 C 1,1 C 96 % 1003,2 hPa 0,0 l/m 0 min 0 min 0,0 UV-I 0 W/m 2,6 km/h (1 Bft)
02.03.2014 07:04 2,4 C 1,1 C 95 % 1003,2 hPa 0,0 l/m 0 min 0 min 0,0 UV-I 0 W/m 0,0 km/h (0 Bft)
02.03.2014 07:06 2,4 C 1,1 C 95 % 1003,2 hPa 0,0 l/m 0 min 0 min 0,0 UV-I 0 W/m 0,0 km/h (0 Bft)
02.03.2014 07:08 2,4 C 1,1 C 95 % 1003,2 hPa 0,0 l/m 0 min 0 min 0,0 UV-I 0 W/m 0,0 km/h (0 Bft)
02.03.2014 07:10 2,3 C 0,6 C 95 % 1003,2 hPa 0,0 l/m 0 min 0 min 0,0 UV-I 0 W/m 0,0 km/h (0 Bft)
02.03.2014 07:12 2,3 C 0,6 C 95 % 1003,3 hPa 0,0 l/m 0 min 0 min 0,0 UV-I 0 W/m 0,0 km/h (0 Bft)
02.03.2014 07:14 2,3 C 0,6 C 95 % 1003,3 hPa 0,0 l/m 0 min 0 min 0,0 UV-I 0 W/m 0,0 km/h (0 Bft)
02.03.2014 07:16 2,3 C 0,6 C 95 % 1003,3 hPa 0,0 l/m 0 min 0 min 0,0 UV-I 0 W/m 0,0 km/h (0 Bft)
02.03.2014 07:18 2,3 C 0,6 C 95 % 1003,3 hPa 0,0 l/m 0 min 0 min 0,0 UV-I 5 W/m 0,0 km/h (0 Bft)
02.03.2014 07:20 2,3 C 0,6 C 95 % 1003,3 hPa 0,0 l/m 0 min 0 min 0,0 UV-I 5 W/m 0,0 km/h (0 Bft)
02.03.2014 07:22 2,3 C 0,6 C 95 % 1003,3 hPa 0,0 l/m 0 min 0 min 0,0 UV-I 5 W/m 0,0 km/h (0 Bft)
02.03.2014 07:24 2,2 C 0,6 C 95 % 1003,3 hPa 0,0 l/m 0 min 0 min 0,0 UV-I 7 W/m 0,0 km/h (0 Bft)
02.03.2014 07:26 2,2 C 0,6 C 96 % 1003,3 hPa 0,0 l/m 0 min 0 min 0,0 UV-I 7 W/m 0,0 km/h (0 Bft)
02.03.2014 07:28 2,2 C 0,6 C 96 % 1003,3 hPa 0,0 l/m 0 min 0 min 0,0 UV-I 9 W/m 0,0 km/h (0 Bft)
02.03.2014 07:30 2,2 C 0,6 C 96 % 1003,4 hPa 0,0 l/m 0 min 0 min 0,0 UV-I 9 W/m 0,0 km/h (0 Bft)
02.03.2014 07:32 2,2 C 0,6 C 96 % 1003,4 hPa 0,0 l/m 0 min 0 min 0,0 UV-I 9 W/m 0,0 km/h (0 Bft)
02.03.2014 07:34 2,2 C 0,6 C 96 % 1003,4 hPa 0,0 l/m 0 min 0 min 0,0 UV-I 12 W/m 0,0 km/h (0 Bft)
02.03.2014 07:36 2,1 C 0,6 C 96 % 1003,6 hPa 0,0 l/m 0 min 0 min 0,0 UV-I 14 W/m 0,0 km/h (0 Bft)
02.03.2014 07:38 2,1 C 0,6 C 96 % 1003,6 hPa 0,0 l/m 0 min 0 min 0,0 UV-I 16 W/m 0,0 km/h (0 Bft)
02.03.2014 07:40 2,1 C 0,6 C 96 % 1003,6 hPa 0,0 l/m 0 min 0 min 0,0 UV-I 16 W/m 0,0 km/h (0 Bft)
02.03.2014 07:42 2,1 C 0,6 C 96 % 1003,6 hPa 0,0 l/m 0 min 0 min 0,0 UV-I 18 W/m 0,0 km/h (0 Bft)
02.03.2014 07:44 2,1 C 0,6 C 96 % 1003,6 hPa 0,0 l/m 0 min 0 min 0,0 UV-I 19 W/m 0,0 km/h (0 Bft)
02.03.2014 07:46 2,1 C 0,6 C 95 % 1003,7 hPa 0,0 l/m 0 min 0 min 0,0 UV-I 21 W/m 0,0 km/h (0 Bft)
02.03.2014 07:48 2,0 C 0,6 C 95 % 1003,7 hPa 0,0 l/m 0 min 0 min 0,0 UV-I 21 W/m 0,0 km/h (0 Bft)
02.03.2014 07:50 2,0 C 0,0 C 95 % 1003,7 hPa 0,0 l/m 0 min 0 min 0,0 UV-I 23 W/m 0,0 km/h (0 Bft)
02.03.2014 07:52 2,0 C 0,6 C 95 % 1003,7 hPa 0,0 l/m 0 min 0 min 0,0 UV-I 25 W/m 0,0 km/h (0 Bft)
02.03.2014 07:54 2,0 C 0,6 C 95 % 1003,7 hPa 0,0 l/m 0 min 0 min 0,0 UV-I 25 W/m 0,0 km/h (0 Bft)
02.03.2014 07:56 2,0 C 0,6 C 95 % 1003,7 hPa 0,0 l/m 0 min 0 min 0,0 UV-I 26 W/m 0,0 km/h (0 Bft)
02.03.2014 07:58 1,9 C 1,1 C 95 % 1003,7 hPa 0,0 l/m 0 min 0 min 0,0 UV-I 26 W/m 0,0 km/h (0 Bft)
02.03.2014 08:00 1,9 C 1,1 C 95 % 1003,7 hPa 0,0 l/m 0 min 0 min 0,0 UV-I 30 W/m 0,0 km/h (0 Bft)
02.03.2014 08:02 2,0 C 1,1 C 95 % 1003,8 hPa 0,0 l/m 0 min 0 min 0,0 UV-I 30 W/m 0,0 km/h (0 Bft)
02.03.2014 08:04 2,0 C 1,1 C 95 % 1003,8 hPa 0,0 l/m 0 min 0 min 0,0 UV-I 32 W/m 0,0 km/h (0 Bft)
02.03.2014 08:06 2,0 C 1,1 C 96 % 1003,8 hPa 0,0 l/m 0 min 0 min 0,0 UV-I 33 W/m 0,0 km/h (0 Bft)
02.03.2014 08:08 2,0 C 1,1 C 96 % 1003,9 hPa 0,0 l/m 0 min 0 min 0,0 UV-I 33 W/m 0,0 km/h (0 Bft)
02.03.2014 08:10 2,1 C 1,1 C 96 % 1003,9 hPa 0,0 l/m 0 min 0 min 0,0 UV-I 35 W/m 0,0 km/h (0 Bft)
02.03.2014 08:12 2,1 C 1,1 C 96 % 1003,9 hPa 0,0 l/m 0 min 0 min 0,0 UV-I 37 W/m 2,6 km/h (1 Bft)
02.03.2014 08:14 2,1 C 1,1 C 96 % 1003,9 hPa 0,0 l/m 0 min 0 min 0,0 UV-I 39 W/m 2,6 km/h (1 Bft)
02.03.2014 08:16 2,2 C 1,1 C 96 % 1003,9 hPa 0,0 l/m 0 min 0 min 0,0 UV-I 39 W/m 0,0 km/h (0 Bft)
02.03.2014 08:18 2,2 C 1,1 C 96 % 1004,0 hPa 0,0 l/m 0 min 0 min 0,0 UV-I 40 W/m 0,0 km/h (0 Bft)
02.03.2014 08:20 2,2 C 1,1 C 96 % 1004,0 hPa 0,0 l/m 0 min 0 min 0,0 UV-I 54 W/m 0,0 km/h (0 Bft)
02.03.2014 08:22 2,3 C 1,7 C 96 % 1004,0 hPa 0,0 l/m 0 min 0 min 0,0 UV-I 74 W/m 0,0 km/h (0 Bft)
02.03.2014 08:24 2,3 C 1,7 C 96 % 1004,0 hPa 0,0 l/m 0 min 0 min 0,0 UV-I 86 W/m 0,0 km/h (0 Bft)
02.03.2014 08:26 2,4 C 1,7 C 96 % 1004,1 hPa 0,0 l/m 0 min 0 min 0,0 UV-I 90 W/m 0,0 km/h (0 Bft)
02.03.2014 08:28 2,4 C 1,7 C 96 % 1004,1 hPa 0,0 l/m 2 min 0 min 0,0 UV-I 95 W/m 2,6 km/h (1 Bft)
02.03.2014 08:30 2,5 C 1,7 C 96 % 1004,1 hPa 0,0 l/m 2 min 0 min 0,0 UV-I 97 W/m 0,0 km/h (0 Bft)
02.03.2014 08:32 2,6 C 1,7 C 96 % 1004,1 hPa 0,0 l/m 0 min 0 min 0,0 UV-I 98 W/m 0,0 km/h (0 Bft)
02.03.2014 08:34 2,6 C 1,7 C 96 % 1004,1 hPa 0,0 l/m 2 min 0 min 0,0 UV-I 104 W/m 7,7 km/h (2 Bft)
02.03.2014 08:36 2,7 C 1,7 C 96 % 1004,2 hPa 0,0 l/m 2 min 0 min 0,0 UV-I 109 W/m 0,0 km/h (0 Bft)
02.03.2014 08:38 2,7 C 1,7 C 96 % 1004,2 hPa 0,0 l/m 2 min 0 min 0,0 UV-I 113 W/m 0,0 km/h (0 Bft)
02.03.2014 08:40 2,7 C 1,7 C 96 % 1004,3 hPa 0,0 l/m 2 min 0 min 0,0 UV-I 114 W/m 0,0 km/h (0 Bft)
02.03.2014 08:42 2,8 C 1,7 C 96 % 1004,3 hPa 0,0 l/m 2 min 0 min 0,0 UV-I 118 W/m 0,0 km/h (0 Bft)
02.03.2014 08:44 2,8 C 1,7 C 96 % 1004,3 hPa 0,0 l/m 2 min 0 min 0,0 UV-I 123 W/m 2,6 km/h (1 Bft)
02.03.2014 08:46 2,9 C 1,7 C 96 % 1004,4 hPa 0,0 l/m 2 min 0 min 0,0 UV-I 130 W/m 5,1 km/h (1 Bft)
02.03.2014 08:48 2,9 C 2,2 C 96 % 1004,4 hPa 0,0 l/m 2 min 0 min 0,0 UV-I 134 W/m 5,1 km/h (1 Bft)
02.03.2014 08:50 3,0 C 2,2 C 96 % 1004,4 hPa 0,0 l/m 2 min 0 min 0,0 UV-I 135 W/m 2,6 km/h (1 Bft)
02.03.2014 08:52 3,1 C 2,2 C 96 % 1004,4 hPa 0,0 l/m 2 min 0 min 0,0 UV-I 141 W/m 5,1 km/h (1 Bft)
02.03.2014 08:54 3,1 C 2,2 C 96 % 1004,4 hPa 0,0 l/m 2 min 0 min 0,0 UV-I 146 W/m 2,6 km/h (1 Bft)
02.03.2014 08:56 3,2 C 2,2 C 96 % 1004,5 hPa 0,0 l/m 2 min 0 min 0,0 UV-I 151 W/m 5,1 km/h (1 Bft)
02.03.2014 08:58 3,2 C 2,2 C 96 % 1004,4 hPa 0,0 l/m 2 min 0 min 0,0 UV-I 158 W/m 0,0 km/h (0 Bft)
02.03.2014 09:00 3,3 C 2,2 C 96 % 1004,4 hPa 0,0 l/m 2 min 0 min 0,0 UV-I 162 W/m 10,3 km/h (2 Bft)
02.03.2014 09:02 3,4 C 2,2 C 96 % 1004,4 hPa 0,0 l/m 2 min 0 min 0,0 UV-I 162 W/m 10,3 km/h (2 Bft)
02.03.2014 09:04 3,4 C 2,2 C 96 % 1004,4 hPa 0,0 l/m 2 min 0 min 0,0 UV-I 171 W/m 12,9 km/h (3 Bft)
02.03.2014 09:06 3,5 C 2,8 C 96 % 1004,4 hPa 0,0 l/m 2 min 0 min 0,0 UV-I 178 W/m 0,0 km/h (0 Bft)
02.03.2014 09:08 3,6 C 2,8 C 96 % 1004,4 hPa 0,0 l/m 2 min 0 min 0,0 UV-I 179 W/m 0,0 km/h (0 Bft)
02.03.2014 09:10 3,7 C 2,8 C 96 % 1004,4 hPa 0,0 l/m 2 min 0 min 0,0 UV-I 186 W/m 2,6 km/h (1 Bft)
02.03.2014 09:12 3,7 C 2,8 C 96 % 1004,5 hPa 0,0 l/m 2 min 0 min 0,0 UV-I 193 W/m 0,0 km/h (0 Bft)
02.03.2014 09:14 3,8 C 2,8 C 96 % 1004,6 hPa 0,0 l/m 2 min 0 min 0,0 UV-I 195 W/m 7,7 km/h (2 Bft)
02.03.2014 09:16 3,9 C 2,8 C 96 % 1004,6 hPa 0,0 l/m 2 min 0 min 0,0 UV-I 204 W/m 12,9 km/h (3 Bft)
02.03.2014 09:18 3,9 C 2,8 C 96 % 1004,7 hPa 0,0 l/m 2 min 0 min 0,0 UV-I 207 W/m 12,9 km/h (3 Bft)
02.03.2014 09:20 4,0 C 2,8 C 95 % 1004,7 hPa 0,0 l/m 2 min 0 min 0,0 UV-I 209 W/m 10,3 km/h (2 Bft)
02.03.2014 09:22 4,1 C 2,8 C 95 % 1004,7 hPa 0,0 l/m 2 min 0 min 0,0 UV-I 211 W/m 10,3 km/h (2 Bft)
02.03.2014 09:24 4,2 C 2,8 C 95 % 1004,7 hPa 0,0 l/m 2 min 0 min 0,0 UV-I 221 W/m 0,0 km/h (0 Bft)
02.03.2014 09:26 4,3 C 2,8 C 95 % 1004,7 hPa 0,0 l/m 2 min 0 min 0,0 UV-I 220 W/m 0,0 km/h (0 Bft)
02.03.2014 09:28 4,4 C 2,8 C 95 % 1004,7 hPa 0,0 l/m 2 min 0 min 0,0 UV-I 230 W/m 5,1 km/h (1 Bft)
02.03.2014 09:30 4,4 C 3,3 C 94 % 1004,7 hPa 0,0 l/m 2 min 0 min 0,0 UV-I 230 W/m 2,6 km/h (1 Bft)
02.03.2014 09:32 4,5 C 3,3 C 94 % 1004,7 hPa 0,0 l/m 2 min 0 min 0,0 UV-I 232 W/m 2,6 km/h (1 Bft)
02.03.2014 09:34 4,6 C 3,3 C 94 % 1004,7 hPa 0,0 l/m 2 min 0 min 0,0 UV-I 241 W/m 12,9 km/h (3 Bft)
02.03.2014 09:36 4,7 C 3,3 C 93 % 1004,6 hPa 0,0 l/m 2 min 0 min 0,0 UV-I 246 W/m 18,0 km/h (3 Bft)
02.03.2014 09:38 4,8 C 3,3 C 93 % 1004,6 hPa 0,0 l/m 2 min 0 min 0,0 UV-I 248 W/m 10,3 km/h (2 Bft)
02.03.2014 09:40 4,9 C 3,3 C 93 % 1004,7 hPa 0,0 l/m 2 min 0 min 0,0 UV-I 253 W/m 7,7 km/h (2 Bft)
02.03.2014 09:42 5,0 C 3,3 C 92 % 1004,7 hPa 0,0 l/m 2 min 0 min 0,0 UV-I 258 W/m 7,7 km/h (2 Bft)
02.03.2014 09:44 5,1 C 3,3 C 92 % 1004,7 hPa 0,0 l/m 2 min 0 min 0,0 UV-I 271 W/m 12,9 km/h (3 Bft)
02.03.2014 09:46 5,1 C 3,3 C 91 % 1004,6 hPa 0,0 l/m 2 min 0 min 0,0 UV-I 271 W/m 5,1 km/h (1 Bft)
02.03.2014 09:48 5,1 C 3,3 C 90 % 1004,6 hPa 0,0 l/m 2 min 0 min 0,0 UV-I 267 W/m 15,4 km/h (3 Bft)
02.03.2014 09:50 5,2 C 3,9 C 90 % 1004,7 hPa 0,0 l/m 2 min 0 min 0,0 UV-I 269 W/m 7,7 km/h (2 Bft)
02.03.2014 09:52 5,3 C 3,9 C 90 % 1004,7 hPa 0,0 l/m 2 min 0 min 0,0 UV-I 279 W/m 5,1 km/h (1 Bft)
02.03.2014 09:54 5,3 C 3,9 C 89 % 1004,7 hPa 0,0 l/m 2 min 0 min 0,0 UV-I 278 W/m 7,7 km/h (2 Bft)
02.03.2014 09:56 5,3 C 3,9 C 89 % 1004,7 hPa 0,0 l/m 2 min 0 min 0,0 UV-I 297 W/m 7,7 km/h (2 Bft)
02.03.2014 09:58 5,4 C 3,9 C 89 % 1004,6 hPa 0,0 l/m 2 min 0 min 0,0 UV-I 297 W/m 0,0 km/h (0 Bft)
02.03.2014 10:00 5,6 C 3,9 C 89 % 1004,6 hPa 0,0 l/m 2 min 0 min 0,0 UV-I 311 W/m 0,0 km/h (0 Bft)
02.03.2014 10:02 5,7 C 4,4 C 89 % 1004,6 hPa 0,0 l/m 2 min 0 min 0,0 UV-I 316 W/m 5,1 km/h (1 Bft)
02.03.2014 10:04 5,7 C 4,4 C 88 % 1004,6 hPa 0,0 l/m 2 min 0 min 0,0 UV-I 315 W/m 0,0 km/h (0 Bft)
02.03.2014 10:06 5,8 C 4,4 C 88 % 1004,6 hPa 0,0 l/m 2 min 0 min 0,0 UV-I 318 W/m 12,9 km/h (3 Bft)
02.03.2014 10:08 5,9 C 4,4 C 87 % 1004,6 hPa 0,0 l/m 2 min 0 min 0,0 UV-I 322 W/m 10,3 km/h (2 Bft)
02.03.2014 10:10 6,0 C 4,4 C 87 % 1004,7 hPa 0,0 l/m 2 min 0 min 0,0 UV-I 320 W/m 0,0 km/h (0 Bft)
02.03.2014 10:12 6,0 C 4,4 C 86 % 1004,6 hPa 0,0 l/m 2 min 0 min 0,0 UV-I 323 W/m 7,7 km/h (2 Bft)
02.03.2014 10:14 6,1 C 4,4 C 86 % 1004,7 hPa 0,0 l/m 2 min 0 min 0,0 UV-I 338 W/m 2,6 km/h (1 Bft)
02.03.2014 10:16 6,2 C 5,0 C 86 % 1004,6 hPa 0,0 l/m 2 min 0 min 0,0 UV-I 330 W/m 2,6 km/h (1 Bft)
02.03.2014 10:18 6,2 C 5,0 C 86 % 1004,6 hPa 0,0 l/m 2 min 0 min 0,0 UV-I 338 W/m 0,0 km/h (0 Bft)
02.03.2014 10:20 6,3 C 5,0 C 85 % 1004,6 hPa 0,0 l/m 2 min 0 min 0,0 UV-I 341 W/m 20,6 km/h (4 Bft)
02.03.2014 10:22 6,4 C 5,0 C 85 % 1004,7 hPa 0,0 l/m 2 min 0 min 0,0 UV-I 352 W/m 12,9 km/h (3 Bft)
02.03.2014 10:24 6,4 C 5,0 C 85 % 1004,6 hPa 0,0 l/m 2 min 0 min 0,0 UV-I 362 W/m 18,0 km/h (3 Bft)
02.03.2014 10:26 6,4 C 5,0 C 84 % 1004,6 hPa 0,0 l/m 2 min 0 min 0,0 UV-I 350 W/m 18,0 km/h (3 Bft)
02.03.2014 10:28 6,6 C 5,0 C 84 % 1004,7 hPa 0,0 l/m 2 min 0 min 0,0 UV-I 367 W/m 10,3 km/h (2 Bft)
02.03.2014 10:30 6,7 C 5,0 C 84 % 1004,6 hPa 0,0 l/m 2 min 0 min 0,0 UV-I 362 W/m 12,9 km/h (3 Bft)
02.03.2014 10:32 6,7 C 5,0 C 83 % 1004,7 hPa 0,0 l/m 2 min 0 min 0,0 UV-I 369 W/m 10,3 km/h (2 Bft)
02.03.2014 10:34 6,7 C 5,6 C 83 % 1004,6 hPa 0,0 l/m 2 min 0 min 0,0 UV-I 364 W/m 7,7 km/h (2 Bft)
02.03.2014 10:36 6,7 C 5,6 C 82 % 1004,6 hPa 0,0 l/m 2 min 0 min 0,0 UV-I 369 W/m 10,3 km/h (2 Bft)
02.03.2014 10:38 6,8 C 5,6 C 82 % 1004,5 hPa 0,0 l/m 2 min 0 min 0,0 UV-I 380 W/m 12,9 km/h (3 Bft)
02.03.2014 10:40 6,8 C 5,6 C 82 % 1004,6 hPa 0,0 l/m 2 min 0 min 0,0 UV-I 396 W/m 7,7 km/h (2 Bft)
02.03.2014 10:42 6,8 C 5,6 C 81 % 1004,5 hPa 0,0 l/m 2 min 0 min 0,0 UV-I 408 W/m 12,9 km/h (3 Bft)
02.03.2014 10:44 6,8 C 5,6 C 81 % 1004,4 hPa 0,0 l/m 2 min 0 min 0,0 UV-I 411 W/m 7,7 km/h (2 Bft)
02.03.2014 10:46 6,9 C 5,6 C 81 % 1004,4 hPa 0,0 l/m 2 min 0 min 0,0 UV-I 411 W/m 18,0 km/h (3 Bft)
02.03.2014 10:48 6,8 C 5,0 C 81 % 1004,4 hPa 0,0 l/m 0 min 0 min 0,0 UV-I 120 W/m 12,9 km/h (3 Bft)
02.03.2014 10:50 6,8 C 5,0 C 81 % 1004,4 hPa 0,0 l/m 2 min 0 min 0,0 UV-I 392 W/m 10,3 km/h (2 Bft)
02.03.2014 10:52 6,8 C 5,6 C 81 % 1004,3 hPa 0,0 l/m 2 min 0 min 0,5 UV-I 392 W/m 2,6 km/h (1 Bft)
02.03.2014 10:54 6,9 C 5,0 C 80 % 1004,4 hPa 0,0 l/m 0 min 0 min 0,0 UV-I 83 W/m 20,6 km/h (4 Bft)
02.03.2014 10:56 6,8 C 5,0 C 80 % 1004,3 hPa 0,0 l/m 0 min 0 min 0,5 UV-I 86 W/m 23,2 km/h (4 Bft)
02.03.2014 10:58 6,8 C 5,6 C 80 % 1004,4 hPa 0,0 l/m 0 min 0 min 0,5 UV-I 86 W/m 20,6 km/h (4 Bft)
02.03.2014 11:00 6,8 C 5,6 C 80 % 1004,4 hPa 0,0 l/m 2 min 0 min 0,5 UV-I 422 W/m 7,7 km/h (2 Bft)
02.03.2014 11:02 6,9 C 5,6 C 79 % 1004,3 hPa 0,0 l/m 2 min 0 min 0,6 UV-I 422 W/m 18,0 km/h (3 Bft)
02.03.2014 11:04 7,1 C 5,6 C 79 % 1004,3 hPa 0,0 l/m 2 min 0 min 0,6 UV-I 434 W/m 23,2 km/h (4 Bft)
02.03.2014 11:06 7,2 C 5,6 C 78 % 1004,3 hPa 0,0 l/m 2 min 0 min 0,6 UV-I 438 W/m 28,3 km/h (4 Bft)
02.03.2014 11:08 7,2 C 5,6 C 78 % 1004,3 hPa 0,0 l/m 2 min 0 min 0,6 UV-I 436 W/m 10,3 km/h (2 Bft)
02.03.2014 11:10 7,3 C 6,1 C 78 % 1004,4 hPa 0,0 l/m 2 min 0 min 0,0 UV-I 364 W/m 10,3 km/h (2 Bft)
02.03.2014 11:12 7,4 C 6,1 C 78 % 1004,4 hPa 0,0 l/m 2 min 0 min 0,6 UV-I 441 W/m 18,0 km/h (3 Bft)
02.03.2014 11:14 7,4 C 6,1 C 78 % 1004,4 hPa 0,0 l/m 2 min 0 min 0,6 UV-I 425 W/m 7,7 km/h (2 Bft)
02.03.2014 11:16 7,4 C 6,1 C 77 % 1004,4 hPa 0,0 l/m 2 min 0 min 0,5 UV-I 427 W/m 12,9 km/h (3 Bft)
02.03.2014 11:18 7,4 C 6,1 C 77 % 1004,4 hPa 0,0 l/m 2 min 0 min 0,5 UV-I 427 W/m 15,4 km/h (3 Bft)
02.03.2014 11:20 7,4 C 6,1 C 76 % 1004,4 hPa 0,0 l/m 2 min 0 min 0,6 UV-I 473 W/m 10,3 km/h (2 Bft)
02.03.2014 11:22 7,6 C 6,1 C 76 % 1004,4 hPa 0,0 l/m 2 min 0 min 0,6 UV-I 459 W/m 15,4 km/h (3 Bft)
02.03.2014 11:24 7,6 C 6,1 C 75 % 1004,3 hPa 0,0 l/m 2 min 0 min 0,0 UV-I 499 W/m 12,9 km/h (3 Bft)
02.03.2014 11:26 7,6 C 6,1 C 74 % 1004,3 hPa 0,0 l/m 2 min 0 min 0,7 UV-I 499 W/m 25,7 km/h (4 Bft)
02.03.2014 11:28 7,7 C 6,7 C 75 % 1004,3 hPa 0,0 l/m 2 min 0 min 0,6 UV-I 499 W/m 12,9 km/h (3 Bft)
02.03.2014 11:30 7,7 C 6,7 C 75 % 1004,3 hPa 0,0 l/m 2 min 0 min 0,7 UV-I 563 W/m 15,4 km/h (3 Bft)
02.03.2014 11:32 7,8 C 7,2 C 75 % 1004,3 hPa 0,0 l/m 2 min 0 min 0,7 UV-I 568 W/m 12,9 km/h (3 Bft)
02.03.2014 11:34 8,1 C 7,2 C 75 % 1004,2 hPa 0,0 l/m 2 min 0 min 0,8 UV-I 566 W/m 18,0 km/h (3 Bft)
02.03.2014 11:36 8,4 C 7,8 C 75 % 1004,2 hPa 0,0 l/m 2 min 0 min 0,8 UV-I 589 W/m 12,9 km/h (3 Bft)
02.03.2014 11:38 8,7 C 7,8 C 75 % 1004,2 hPa 0,0 l/m 2 min 0 min 0,0 UV-I 592 W/m 5,1 km/h (1 Bft)
02.03.2014 11:40 8,7 C 7,8 C 74 % 1004,2 hPa 0,0 l/m 2 min 0 min 0,7 UV-I 587 W/m 5,1 km/h (1 Bft)
02.03.2014 11:42 8,9 C 8,3 C 74 % 1004,3 hPa 0,0 l/m 2 min 0 min 0,7 UV-I 534 W/m 18,0 km/h (3 Bft)
02.03.2014 11:44 9,1 C 8,3 C 74 % 1004,2 hPa 0,0 l/m 2 min 0 min 0,6 UV-I 541 W/m 5,1 km/h (1 Bft)
02.03.2014 11:46 9,1 C 8,3 C 73 % 1004,3 hPa 0,0 l/m 2 min 0 min 0,6 UV-I 561 W/m 5,1 km/h (1 Bft)
02.03.2014 11:48 9,2 C 8,3 C 72 % 1004,2 hPa 0,0 l/m 2 min 0 min 0,6 UV-I 585 W/m 15,4 km/h (3 Bft)
02.03.2014 11:50 9,3 C 8,3 C 72 % 1004,2 hPa 0,0 l/m 2 min 0 min 0,5 UV-I 541 W/m 12,9 km/h (3 Bft)
02.03.2014 11:52 9,3 C 8,3 C 71 % 1004,2 hPa 0,0 l/m 2 min 0 min 0,5 UV-I 568 W/m 10,3 km/h (2 Bft)
02.03.2014 11:54 9,4 C 8,3 C 71 % 1004,2 hPa 0,0 l/m 2 min 0 min 0,5 UV-I 580 W/m 10,3 km/h (2 Bft)
02.03.2014 11:56 9,6 C 8,3 C 71 % 1004,2 hPa 0,0 l/m 2 min 0 min 0,0 UV-I 591 W/m 10,3 km/h (2 Bft)
02.03.2014 11:58 9,7 C 8,3 C 71 % 1004,2 hPa 0,0 l/m 2 min 0 min 0,0 UV-I 575 W/m 5,1 km/h (1 Bft)
02.03.2014 12:00 9,6 C 8,3 C 71 % 1004,2 hPa 0,0 l/m 2 min 0 min 0,0 UV-I 601 W/m 7,7 km/h (2 Bft)
02.03.2014 12:02 9,6 C 8,3 C 72 % 1004,2 hPa 0,0 l/m 2 min 0 min 0,0 UV-I 598 W/m 12,9 km/h (3 Bft)
02.03.2014 12:04 9,4 C 8,9 C 70 % 1004,1 hPa 0,0 l/m 2 min 0 min 0,0 UV-I 587 W/m 15,4 km/h (3 Bft)
02.03.2014 12:06 9,3 C 8,3 C 70 % 1004,2 hPa 0,0 l/m 2 min 0 min 0,0 UV-I 545 W/m 10,3 km/h (2 Bft)
02.03.2014 12:08 9,2 C 7,8 C 70 % 1004,2 hPa 0,0 l/m 0 min 0 min 0,0 UV-I 107 W/m 12,9 km/h (3 Bft)
02.03.2014 12:10 8,8 C 7,2 C 67 % 1004,3 hPa 0,0 l/m 0 min 0 min 0,0 UV-I 102 W/m 12,9 km/h (3 Bft)
02.03.2014 12:12 8,3 C 6,7 C 69 % 1004,2 hPa 0,0 l/m 0 min 0 min 0,0 UV-I 127 W/m 5,1 km/h (1 Bft)
02.03.2014 12:14 8,1 C 6,7 C 71 % 1004,2 hPa 0,0 l/m 0 min 0 min 0,0 UV-I 114 W/m 10,3 km/h (2 Bft)
02.03.2014 12:16 7,9 C 6,7 C 71 % 1004,2 hPa 0,0 l/m 0 min 0 min 0,0 UV-I 109 W/m 10,3 km/h (2 Bft)
02.03.2014 12:18 7,8 C 6,7 C 71 % 1004,2 hPa 0,0 l/m 0 min 0 min 0,0 UV-I 151 W/m 10,3 km/h (2 Bft)
02.03.2014 12:20 7,7 C 6,7 C 72 % 1004,2 hPa 0,0 l/m 0 min 0 min 0,0 UV-I 120 W/m 12,9 km/h (3 Bft)
02.03.2014 12:22 7,6 C 6,1 C 71 % 1004,2 hPa 0,0 l/m 0 min 0 min 0,0 UV-I 127 W/m 10,3 km/h (2 Bft)
02.03.2014 12:24 7,6 C 6,7 C 72 % 1004,2 hPa 0,0 l/m 2 min 0 min 0,0 UV-I 454 W/m 7,7 km/h (2 Bft)
02.03.2014 12:26 7,8 C 6,7 C 73 % 1004,2 hPa 0,0 l/m 2 min 0 min 0,0 UV-I 550 W/m 10,3 km/h (2 Bft)
02.03.2014 12:28 8,2 C 7,2 C 73 % 1004,2 hPa 0,0 l/m 2 min 0 min 0,0 UV-I 615 W/m 12,9 km/h (3 Bft)
02.03.2014 12:30 8,5 C 7,8 C 71 % 1004,2 hPa 0,0 l/m 2 min 0 min 0,0 UV-I 548 W/m 10,3 km/h (2 Bft)
02.03.2014 12:32 8,8 C 8,3 C 71 % 1004,1 hPa 0,0 l/m 2 min 0 min 0,0 UV-I 568 W/m 15,4 km/h (3 Bft)
02.03.2014 12:34 9,1 C 8,3 C 69 % 1004,1 hPa 0,0 l/m 2 min 0 min 0,0 UV-I 313 W/m 10,3 km/h (2 Bft)
02.03.2014 12:36 9,1 C 8,3 C 66 % 1004,1 hPa 0,0 l/m 0 min 0 min 0,0 UV-I 185 W/m 15,4 km/h (3 Bft)
02.03.2014 12:38 8,9 C 7,8 C 67 % 1004,0 hPa 0,0 l/m 0 min 0 min 0,0 UV-I 151 W/m 10,3 km/h (2 Bft)
02.03.2014 12:40 8,7 C 7,8 C 67 % 1004,0 hPa 0,0 l/m 0 min 0 min 0,0 UV-I 107 W/m 2,6 km/h (1 Bft)
02.03.2014 12:42 8,4 C 7,2 C 67 % 1004,0 hPa 0,0 l/m 0 min 0 min 0,0 UV-I 107 W/m 18,0 km/h (3 Bft)
02.03.2014 12:44 8,3 C 7,2 C 69 % 1004,0 hPa 0,0 l/m 0 min 0 min 0,5 UV-I 123 W/m 10,3 km/h (2 Bft)
02.03.2014 12:46 8,3 C 7,2 C 69 % 1004,0 hPa 0,0 l/m 2 min 0 min 0,6 UV-I 592 W/m 2,6 km/h (1 Bft)
02.03.2014 12:48 8,6 C 7,8 C 70 % 1004,0 hPa 0,0 l/m 2 min 0 min 0,8 UV-I 606 W/m 10,3 km/h (2 Bft)
02.03.2014 12:50 8,8 C 7,8 C 68 % 1004,0 hPa 0,0 l/m 2 min 0 min 0,9 UV-I 587 W/m 12,9 km/h (3 Bft)
02.03.2014 12:52 9,1 C 7,8 C 69 % 1004,0 hPa 0,0 l/m 2 min 0 min 0,9 UV-I 559 W/m 7,7 km/h (2 Bft)
02.03.2014 12:54 9,3 C 8,3 C 68 % 1003,9 hPa 0,0 l/m 2 min 0 min 0,9 UV-I 534 W/m 15,4 km/h (3 Bft)
02.03.2014 12:56 9,4 C 7,8 C 64 % 1003,9 hPa 0,0 l/m 2 min 0 min 0,8 UV-I 513 W/m 10,3 km/h (2 Bft)
02.03.2014 12:58 9,3 C 7,8 C 63 % 1003,9 hPa 0,0 l/m 0 min 0 min 0,0 UV-I 90 W/m 15,4 km/h (3 Bft)
02.03.2014 13:00 9,0 C 7,2 C 64 % 1003,9 hPa 0,0 l/m 0 min 0 min 0,0 UV-I 93 W/m 10,3 km/h (2 Bft)
02.03.2014 13:02 8,7 C 7,2 C 64 % 1003,8 hPa 0,0 l/m 0 min 0 min 0,0 UV-I 125 W/m 18,0 km/h (3 Bft)
02.03.2014 13:04 8,4 C 6,7 C 66 % 1003,8 hPa 0,0 l/m 0 min 0 min 0,0 UV-I 195 W/m 2,6 km/h (1 Bft)
02.03.2014 13:06 8,4 C 7,2 C 68 % 1003,8 hPa 0,0 l/m 2 min 0 min 0,9 UV-I 513 W/m 5,1 km/h (1 Bft)
02.03.2014 13:08 8,6 C 7,8 C 67 % 1003,7 hPa 0,0 l/m 2 min 0 min 0,5 UV-I 513 W/m 10,3 km/h (2 Bft)
02.03.2014 13:10 8,7 C 7,8 C 66 % 1003,6 hPa 0,0 l/m 2 min 0 min 1,0 UV-I 563 W/m 15,4 km/h (3 Bft)
02.03.2014 13:12 8,9 C 7,8 C 64 % 1003,6 hPa 0,0 l/m 2 min 0 min 1,0 UV-I 550 W/m 15,4 km/h (3 Bft)
02.03.2014 13:14 9,2 C 7,8 C 64 % 1003,5 hPa 0,0 l/m 2 min 0 min 1,0 UV-I 552 W/m 5,1 km/h (1 Bft)
02.03.2014 13:16 9,3 C 7,8 C 63 % 1003,5 hPa 0,0 l/m 2 min 0 min 1,0 UV-I 543 W/m 10,3 km/h (2 Bft)
02.03.2014 13:18 9,3 C 7,8 C 62 % 1003,5 hPa 0,0 l/m 2 min 0 min 1,0 UV-I 533 W/m 15,4 km/h (3 Bft)
02.03.2014 13:20 9,3 C 7,8 C 62 % 1003,4 hPa 0,0 l/m 2 min 0 min 0,9 UV-I 517 W/m 10,3 km/h (2 Bft)
02.03.2014 13:22 9,3 C 7,8 C 63 % 1003,4 hPa 0,0 l/m 2 min 0 min 0,9 UV-I 541 W/m 18,0 km/h (3 Bft)
02.03.2014 13:24 9,4 C 7,8 C 63 % 1003,4 hPa 0,0 l/m 2 min 0 min 0,9 UV-I 540 W/m 15,4 km/h (3 Bft)
02.03.2014 13:26 9,5 C 7,8 C 62 % 1003,4 hPa 0,0 l/m 2 min 0 min 0,9 UV-I 524 W/m 15,4 km/h (3 Bft)
02.03.2014 13:28 9,6 C 7,8 C 62 % 1003,4 hPa 0,0 l/m 2 min 0 min 0,8 UV-I 469 W/m 10,3 km/h (2 Bft)
02.03.2014 13:30 9,4 C 7,8 C 60 % 1003,3 hPa 0,0 l/m 0 min 0 min 0,0 UV-I 98 W/m 15,4 km/h (3 Bft)
02.03.2014 13:32 9,2 C 7,2 C 61 % 1003,4 hPa 0,0 l/m 0 min 0 min 0,0 UV-I 104 W/m 12,9 km/h (3 Bft)
02.03.2014 13:34 8,9 C 7,2 C 59 % 1003,3 hPa 0,0 l/m 0 min 0 min 0,0 UV-I 134 W/m 12,9 km/h (3 Bft)
02.03.2014 13:36 8,7 C 7,2 C 61 % 1003,4 hPa 0,0 l/m 0 min 0 min 0,0 UV-I 151 W/m 5,1 km/h (1 Bft)
02.03.2014 13:38 8,6 C 7,2 C 62 % 1003,3 hPa 0,0 l/m 0 min 0 min 0,0 UV-I 176 W/m 0,0 km/h (0 Bft)
02.03.2014 13:40 8,6 C 7,8 C 61 % 1003,2 hPa 0,0 l/m 2 min 0 min 0,9 UV-I 621 W/m 5,1 km/h (1 Bft)
02.03.2014 13:42 8,9 C 7,8 C 64 % 1003,1 hPa 0,0 l/m 2 min 0 min 1,0 UV-I 615 W/m 7,7 km/h (2 Bft)
02.03.2014 13:44 9,4 C 8,3 C 62 % 1003,0 hPa 0,0 l/m 2 min 0 min 1,0 UV-I 584 W/m 20,6 km/h (4 Bft)
02.03.2014 13:46 9,7 C 8,9 C 62 % 1003,0 hPa 0,0 l/m 2 min 0 min 0,9 UV-I 545 W/m 23,2 km/h (4 Bft)
02.03.2014 13:48 9,9 C 8,9 C 59 % 1003,1 hPa 0,0 l/m 2 min 0 min 0,8 UV-I 527 W/m 12,9 km/h (3 Bft)
02.03.2014 13:50 9,9 C 8,3 C 59 % 1003,0 hPa 0,0 l/m 2 min 0 min 0,9 UV-I 533 W/m 25,7 km/h (4 Bft)
02.03.2014 13:52 9,9 C 8,3 C 59 % 1002,9 hPa 0,0 l/m 2 min 0 min 0,6 UV-I 520 W/m 12,9 km/h (3 Bft)
02.03.2014 13:54 9,9 C 8,3 C 60 % 1002,8 hPa 0,0 l/m 2 min 0 min 0,5 UV-I 540 W/m 12,9 km/h (3 Bft)
02.03.2014 13:56 9,7 C 7,8 C 59 % 1002,8 hPa 0,0 l/m 0 min 0 min 0,0 UV-I 144 W/m 23,2 km/h (4 Bft)
02.03.2014 13:58 9,3 C 7,8 C 61 % 1002,8 hPa 0,0 l/m 0 min 0 min 0,0 UV-I 158 W/m 12,9 km/h (3 Bft)
02.03.2014 14:00 9,1 C 7,8 C 63 % 1002,8 hPa 0,0 l/m 0 min 0 min 0,8 UV-I 167 W/m 10,3 km/h (2 Bft)
02.03.2014 14:02 9,1 C 7,8 C 63 % 1002,7 hPa 0,0 l/m 2 min 0 min 0,8 UV-I 550 W/m 12,9 km/h (3 Bft)
02.03.2014 14:04 9,1 C 7,8 C 62 % 1002,7 hPa 0,0 l/m 0 min 0 min 0,0 UV-I 192 W/m 12,9 km/h (3 Bft)
02.03.2014 14:06 9,3 C 8,3 C 63 % 1002,7 hPa 0,0 l/m 2 min 0 min 0,8 UV-I 508 W/m 12,9 km/h (3 Bft)
02.03.2014 14:08 9,4 C 8,3 C 61 % 1002,7 hPa 0,0 l/m 2 min 0 min 0,8 UV-I 526 W/m 12,9 km/h (3 Bft)
02.03.2014 14:10 9,6 C 8,3 C 61 % 1002,7 hPa 0,0 l/m 2 min 0 min 0,8 UV-I 506 W/m 23,2 km/h (4 Bft)
02.03.2014 14:12 9,8 C 8,3 C 61 % 1002,7 hPa 0,0 l/m 2 min 0 min 0,8 UV-I 529 W/m 23,2 km/h (4 Bft)
02.03.2014 14:14 10,0 C 8,9 C 61 % 1002,7 hPa 0,0 l/m 2 min 0 min 0,8 UV-I 531 W/m 12,9 km/h (3 Bft)
02.03.2014 14:16 10,2 C 8,9 C 60 % 1002,7 hPa 0,0 l/m 2 min 0 min 0,0 UV-I 517 W/m 15,4 km/h (3 Bft)
02.03.2014 14:18 10,2 C 8,9 C 59 % 1002,7 hPa 0,0 l/m 2 min 0 min 0,7 UV-I 527 W/m 12,9 km/h (3 Bft)
02.03.2014 14:20 10,1 C 8,3 C 57 % 1002,7 hPa 0,0 l/m 2 min 0 min 0,7 UV-I 517 W/m 15,4 km/h (3 Bft)
02.03.2014 14:22 9,9 C 8,3 C 58 % 1002,7 hPa 0,0 l/m 2 min 0 min 0,8 UV-I 533 W/m 15,4 km/h (3 Bft)
02.03.2014 14:24 10,0 C 8,9 C 58 % 1002,6 hPa 0,0 l/m 2 min 0 min 0,7 UV-I 517 W/m 10,3 km/h (2 Bft)
02.03.2014 14:26 10,0 C 8,3 C 58 % 1002,6 hPa 0,0 l/m 0 min 0 min 0,0 UV-I 120 W/m 20,6 km/h (4 Bft)
02.03.2014 14:28 9,8 C 8,3 C 59 % 1002,6 hPa 0,0 l/m 0 min 0 min 0,0 UV-I 121 W/m 20,6 km/h (4 Bft)
02.03.2014 14:30 9,7 C 8,3 C 60 % 1002,5 hPa 0,0 l/m 2 min 0 min 0,6 UV-I 334 W/m 12,9 km/h (3 Bft)
02.03.2014 14:32 9,7 C 8,3 C 59 % 1002,5 hPa 0,0 l/m 2 min 0 min 0,6 UV-I 410 W/m 15,4 km/h (3 Bft)
02.03.2014 14:34 9,8 C 8,9 C 59 % 1002,5 hPa 0,0 l/m 2 min 0 min 0,6 UV-I 534 W/m 12,9 km/h (3 Bft)
02.03.2014 14:36 9,8 C 8,3 C 58 % 1002,6 hPa 0,0 l/m 2 min 0 min 0,5 UV-I 534 W/m 12,9 km/h (3 Bft)
02.03.2014 14:38 9,8 C 8,3 C 59 % 1002,5 hPa 0,0 l/m 0 min 0 min 0,0 UV-I 221 W/m 10,3 km/h (2 Bft)
02.03.2014 14:40 9,8 C 8,3 C 59 % 1002,5 hPa 0,0 l/m 0 min 0 min 0,0 UV-I 221 W/m 18,0 km/h (3 Bft)
02.03.2014 14:42 9,7 C 7,8 C 59 % 1002,4 hPa 0,0 l/m 0 min 0 min 0,0 UV-I 116 W/m 10,3 km/h (2 Bft)
02.03.2014 14:44 9,5 C 7,8 C 60 % 1002,5 hPa 0,0 l/m 0 min 0 min 0,0 UV-I 107 W/m 10,3 km/h (2 Bft)
02.03.2014 14:46 9,3 C 7,8 C 60 % 1002,4 hPa 0,0 l/m 0 min 0 min 0,0 UV-I 139 W/m 5,1 km/h (1 Bft)
02.03.2014 14:48 9,1 C 7,8 C 62 % 1002,4 hPa 0,0 l/m 0 min 0 min 0,0 UV-I 206 W/m 18,0 km/h (3 Bft)
02.03.2014 14:50 9,1 C 7,8 C 62 % 1002,4 hPa 0,0 l/m 0 min 0 min 0,0 UV-I 183 W/m 10,3 km/h (2 Bft)
02.03.2014 14:52 9,1 C 7,8 C 61 % 1002,4 hPa 0,0 l/m 0 min 0 min 0,0 UV-I 185 W/m 12,9 km/h (3 Bft)
02.03.2014 14:54 9,3 C 8,3 C 63 % 1002,3 hPa 0,0 l/m 2 min 0 min 0,0 UV-I 504 W/m 5,1 km/h (1 Bft)
02.03.2014 14:56 9,8 C 8,9 C 63 % 1002,4 hPa 0,0 l/m 2 min 0 min 0,0 UV-I 517 W/m 5,1 km/h (1 Bft)
02.03.2014 14:58 10,1 C 8,9 C 61 % 1002,3 hPa 0,0 l/m 2 min 0 min 0,0 UV-I 517 W/m 20,6 km/h (4 Bft)
02.03.2014 15:00 10,3 C 9,4 C 60 % 1002,3 hPa 0,0 l/m 2 min 0 min 0,0 UV-I 515 W/m 15,4 km/h (3 Bft)
02.03.2014 15:02 10,3 C 9,4 C 59 % 1002,3 hPa 0,0 l/m 2 min 0 min 0,0 UV-I 292 W/m 15,4 km/h (3 Bft)
02.03.2014 15:04 10,3 C 9,4 C 60 % 1002,3 hPa 0,0 l/m 2 min 0 min 0,0 UV-I 487 W/m 12,9 km/h (3 Bft)
02.03.2014 15:06 10,3 C 9,4 C 60 % 1002,3 hPa 0,0 l/m 2 min 0 min 0,0 UV-I 385 W/m 18,0 km/h (3 Bft)
02.03.2014 15:08 10,4 C 9,4 C 61 % 1002,3 hPa 0,0 l/m 2 min 0 min 0,0 UV-I 441 W/m 12,9 km/h (3 Bft)
02.03.2014 15:10 10,3 C 8,9 C 58 % 1002,3 hPa 0,0 l/m 2 min 0 min 0,0 UV-I 459 W/m 20,6 km/h (4 Bft)
02.03.2014 15:12 10,2 C 8,9 C 59 % 1002,4 hPa 0,0 l/m 0 min 0 min 0,0 UV-I 172 W/m 23,2 km/h (4 Bft)
02.03.2014 15:14 10,0 C 8,3 C 59 % 1002,3 hPa 0,0 l/m 0 min 0 min 0,0 UV-I 151 W/m 28,3 km/h (4 Bft)
02.03.2014 15:16 9,7 C 8,3 C 60 % 1002,4 hPa 0,0 l/m 0 min 0 min 0,0 UV-I 139 W/m 12,9 km/h (3 Bft)
02.03.2014 15:18 9,4 C 7,8 C 60 % 1002,3 hPa 0,0 l/m 0 min 0 min 0,0 UV-I 132 W/m 12,9 km/h (3 Bft)
02.03.2014 15:20 9,2 C 7,8 C 60 % 1002,3 hPa 0,0 l/m 0 min 0 min 0,0 UV-I 128 W/m 12,9 km/h (3 Bft)
02.03.2014 15:22 9,2 C 7,8 C 61 % 1002,3 hPa 0,0 l/m 0 min 0 min 0,0 UV-I 134 W/m 7,7 km/h (2 Bft)
02.03.2014 15:24 9,1 C 7,8 C 62 % 1002,2 hPa 0,0 l/m 0 min 0 min 0,0 UV-I 144 W/m 7,7 km/h (2 Bft)
02.03.2014 15:26 9,2 C 7,8 C 62 % 1002,2 hPa 0,0 l/m 0 min 0 min 0,0 UV-I 139 W/m 12,9 km/h (3 Bft)
02.03.2014 15:28 9,2 C 8,3 C 63 % 1002,2 hPa 0,0 l/m 0 min 0 min 0,0 UV-I 132 W/m 5,1 km/h (1 Bft)
02.03.2014 15:30 9,2 C 8,3 C 63 % 1002,2 hPa 0,0 l/m 0 min 0 min 0,0 UV-I 116 W/m 10,3 km/h (2 Bft)
02.03.2014 15:32 9,2 C 7,8 C 63 % 1002,2 hPa 0,0 l/m 0 min 0 min 0,0 UV-I 127 W/m 0,0 km/h (0 Bft)
02.03.2014 15:34 9,2 C 8,3 C 63 % 1002,1 hPa 0,0 l/m 2 min 0 min 0,0 UV-I 204 W/m 12,9 km/h (3 Bft)
02.03.2014 15:36 9,3 C 8,3 C 64 % 1002,1 hPa 0,0 l/m 0 min 0 min 0,0 UV-I 155 W/m 12,9 km/h (3 Bft)
02.03.2014 15:38 9,4 C 8,3 C 63 % 1002,1 hPa 0,0 l/m 0 min 0 min 0,0 UV-I 169 W/m 20,6 km/h (4 Bft)
02.03.2014 15:40 9,5 C 8,9 C 62 % 1002,1 hPa 0,0 l/m 2 min 0 min 0,0 UV-I 366 W/m 15,4 km/h (3 Bft)
02.03.2014 15:42 9,6 C 8,3 C 61 % 1002,0 hPa 0,0 l/m 0 min 0 min 0,0 UV-I 141 W/m 18,0 km/h (3 Bft)
02.03.2014 15:44 9,6 C 8,3 C 61 % 1002,0 hPa 0,0 l/m 2 min 0 min 0,0 UV-I 339 W/m 12,9 km/h (3 Bft)
02.03.2014 15:46 9,6 C 8,3 C 61 % 1001,9 hPa 0,0 l/m 2 min 0 min 0,0 UV-I 323 W/m 5,1 km/h (1 Bft)
02.03.2014 15:48 9,7 C 8,3 C 61 % 1001,9 hPa 0,0 l/m 2 min 0 min 0,0 UV-I 264 W/m 18,0 km/h (3 Bft)
02.03.2014 15:50 9,7 C 8,3 C 61 % 1001,9 hPa 0,0 l/m 2 min 0 min 0,0 UV-I 234 W/m 15,4 km/h (3 Bft)
02.03.2014 15:52 9,8 C 8,9 C 61 % 1001,8 hPa 0,0 l/m 2 min 0 min 0,0 UV-I 343 W/m 15,4 km/h (3 Bft)
02.03.2014 15:54 9,9 C 8,9 C 61 % 1001,9 hPa 0,0 l/m 2 min 0 min 0,0 UV-I 348 W/m 15,4 km/h (3 Bft)
02.03.2014 15:56 10,0 C 8,9 C 60 % 1001,8 hPa 0,0 l/m 2 min 0 min 0,0 UV-I 294 W/m 20,6 km/h (4 Bft)
02.03.2014 15:58 10,1 C 8,9 C 60 % 1001,9 hPa 0,0 l/m 2 min 0 min 0,0 UV-I 343 W/m 25,7 km/h (4 Bft)
02.03.2014 16:00 10,1 C 8,9 C 59 % 1001,8 hPa 0,0 l/m 2 min 0 min 0,0 UV-I 353 W/m 10,3 km/h (2 Bft)
02.03.2014 16:02 10,2 C 8,9 C 61 % 1001,8 hPa 0,0 l/m 2 min 0 min 0,0 UV-I 353 W/m 0,0 km/h (0 Bft)
02.03.2014 16:04 10,3 C 8,9 C 61 % 1001,7 hPa 0,0 l/m 2 min 0 min 0,0 UV-I 311 W/m 7,7 km/h (2 Bft)
02.03.2014 16:06 10,2 C 8,9 C 58 % 1001,7 hPa 0,0 l/m 0 min 0 min 0,0 UV-I 134 W/m 12,9 km/h (3 Bft)
02.03.2014 16:08 10,0 C 8,9 C 59 % 1001,7 hPa 0,0 l/m 0 min 0 min 0,0 UV-I 93 W/m 12,9 km/h (3 Bft)
02.03.2014 16:10 9,8 C 8,3 C 59 % 1001,7 hPa 0,0 l/m 0 min 0 min 0,0 UV-I 86 W/m 12,9 km/h (3 Bft)
02.03.2014 16:12 9,6 C 7,8 C 60 % 1001,5 hPa 0,0 l/m 0 min 0 min 0,0 UV-I 86 W/m 15,4 km/h (3 Bft)
02.03.2014 16:14 9,4 C 7,8 C 61 % 1001,5 hPa 0,0 l/m 0 min 0 min 0,0 UV-I 84 W/m 7,7 km/h (2 Bft)
02.03.2014 16:16 9,4 C 7,8 C 62 % 1001,5 hPa 0,0 l/m 2 min 0 min 0,0 UV-I 230 W/m 7,7 km/h (2 Bft)
02.03.2014 16:18 9,5 C 7,8 C 61 % 1001,4 hPa 0,0 l/m 2 min 0 min 0,0 UV-I 241 W/m 20,6 km/h (4 Bft)
02.03.2014 16:20 9,6 C 7,8 C 61 % 1001,4 hPa 0,0 l/m 2 min 0 min 0,0 UV-I 264 W/m 0,0 km/h (0 Bft)
02.03.2014 16:22 9,7 C 8,3 C 60 % 1001,3 hPa 0,0 l/m 2 min 0 min 0,0 UV-I 250 W/m 12,9 km/h (3 Bft)
02.03.2014 16:24 9,8 C 8,3 C 61 % 1001,3 hPa 0,0 l/m 2 min 0 min 0,0 UV-I 279 W/m 12,9 km/h (3 Bft)
02.03.2014 16:26 9,9 C 8,3 C 61 % 1001,3 hPa 0,0 l/m 2 min 0 min 0,0 UV-I 295 W/m 12,9 km/h (3 Bft)
02.03.2014 16:28 10,0 C 8,9 C 61 % 1001,2 hPa 0,0 l/m 2 min 0 min 0,0 UV-I 297 W/m 15,4 km/h (3 Bft)
02.03.2014 16:30 10,0 C 8,9 C 62 % 1001,2 hPa 0,0 l/m 2 min 0 min 0,0 UV-I 267 W/m 7,7 km/h (2 Bft)
02.03.2014 16:32 10,0 C 8,3 C 61 % 1001,1 hPa 0,0 l/m 2 min 0 min 0,0 UV-I 248 W/m 7,7 km/h (2 Bft)
02.03.2014 16:34 9,8 C 8,3 C 61 % 1001,2 hPa 0,0 l/m 2 min 0 min 0,0 UV-I 204 W/m 7,7 km/h (2 Bft)
02.03.2014 16:36 9,7 C 7,8 C 62 % 1001,2 hPa 0,0 l/m 2 min 0 min 0,0 UV-I 181 W/m 7,7 km/h (2 Bft)
02.03.2014 16:38 9,5 C 7,8 C 63 % 1001,2 hPa 0,0 l/m 2 min 0 min 0,0 UV-I 171 W/m 5,1 km/h (1 Bft)
02.03.2014 16:40 9,3 C 7,8 C 63 % 1001,1 hPa 0,0 l/m 0 min 0 min 0,0 UV-I 102 W/m 15,4 km/h (3 Bft)
02.03.2014 16:42 9,2 C 7,8 C 64 % 1001,1 hPa 0,0 l/m 0 min 0 min 0,0 UV-I 70 W/m 12,9 km/h (3 Bft)
02.03.2014 16:44 9,1 C 7,2 C 64 % 1001,1 hPa 0,0 l/m 0 min 0 min 0,0 UV-I 72 W/m 7,7 km/h (2 Bft)
02.03.2014 16:46 9,1 C 7,2 C 64 % 1001,1 hPa 0,0 l/m 2 min 0 min 0,0 UV-I 125 W/m 7,7 km/h (2 Bft)
02.03.2014 16:48 9,1 C 7,2 C 64 % 1001,1 hPa 0,0 l/m 2 min 0 min 0,0 UV-I 167 W/m 15,4 km/h (3 Bft)
02.03.2014 16:50 9,0 C 7,2 C 63 % 1001,0 hPa 0,0 l/m 2 min 0 min 0,0 UV-I 172 W/m 18,0 km/h (3 Bft)
02.03.2014 16:52 8,9 C 7,2 C 63 % 1001,1 hPa 0,0 l/m 2 min 0 min 0,0 UV-I 151 W/m 12,9 km/h (3 Bft)
02.03.2014 16:54 8,8 C 7,2 C 64 % 1001,0 hPa 0,0 l/m 2 min 0 min 0,0 UV-I 125 W/m 10,3 km/h (2 Bft)
02.03.2014 16:56 8,8 C 7,2 C 64 % 1001,0 hPa 0,0 l/m 2 min 0 min 0,0 UV-I 111 W/m 10,3 km/h (2 Bft)
02.03.2014 16:58 8,7 C 7,2 C 63 % 1000,9 hPa 0,0 l/m 0 min 0 min 0,0 UV-I 91 W/m 20,6 km/h (4 Bft)
02.03.2014 17:00 8,7 C 6,7 C 63 % 1001,0 hPa 0,0 l/m 0 min 0 min 0,0 UV-I 79 W/m 23,2 km/h (4 Bft)
02.03.2014 17:02 8,6 C 6,7 C 63 % 1000,8 hPa 0,0 l/m 0 min 0 min 0,0 UV-I 70 W/m 12,9 km/h (3 Bft)
02.03.2014 17:04 8,6 C 6,7 C 63 % 1000,9 hPa 0,0 l/m 0 min 0 min 0,0 UV-I 70 W/m 5,1 km/h (1 Bft)
02.03.2014 17:06 8,5 C 6,7 C 63 % 1000,9 hPa 0,0 l/m 0 min 0 min 0,0 UV-I 69 W/m 18,0 km/h (3 Bft)
02.03.2014 17:08 8,4 C 6,7 C 63 % 1000,8 hPa 0,0 l/m 0 min 0 min 0,0 UV-I 65 W/m 15,4 km/h (3 Bft)
02.03.2014 17:10 8,4 C 6,7 C 63 % 1000,7 hPa 0,0 l/m 0 min 0 min 0,0 UV-I 60 W/m 12,9 km/h (3 Bft)
02.03.2014 17:12 8,3 C 6,7 C 64 % 1000,7 hPa 0,0 l/m 0 min 0 min 0,0 UV-I 58 W/m 0,0 km/h (0 Bft)
02.03.2014 17:14 8,3 C 6,7 C 64 % 1000,7 hPa 0,0 l/m 0 min 0 min 0,0 UV-I 53 W/m 7,7 km/h (2 Bft)
02.03.2014 17:16 8,2 C 6,1 C 64 % 1000,7 hPa 0,0 l/m 0 min 0 min 0,0 UV-I 46 W/m 10,3 km/h (2 Bft)
02.03.2014 17:18 8,2 C 6,1 C 64 % 1000,6 hPa 0,0 l/m 0 min 0 min 0,0 UV-I 44 W/m 5,1 km/h (1 Bft)
02.03.2014 17:20 8,1 C 6,1 C 64 % 1000,7 hPa 0,0 l/m 0 min 0 min 0,0 UV-I 42 W/m 7,7 km/h (2 Bft)
02.03.2014 17:22 8,1 C 6,1 C 65 % 1000,7 hPa 0,0 l/m 0 min 0 min 0,0 UV-I 42 W/m 0,0 km/h (0 Bft)
02.03.2014 17:24 8,0 C 6,1 C 65 % 1000,7 hPa 0,0 l/m 0 min 0 min 0,0 UV-I 40 W/m 7,7 km/h (2 Bft)
02.03.2014 17:26 7,9 C 6,1 C 65 % 1000,7 hPa 0,0 l/m 0 min 0 min 0,0 UV-I 39 W/m 0,0 km/h (0 Bft)
02.03.2014 17:28 7,9 C 6,1 C 64 % 1000,6 hPa 0,0 l/m 0 min 0 min 0,0 UV-I 39 W/m 12,9 km/h (3 Bft)
02.03.2014 17:30 7,9 C 6,1 C 64 % 1000,7 hPa 0,0 l/m 0 min 0 min 0,0 UV-I 37 W/m 15,4 km/h (3 Bft)
02.03.2014 17:32 7,9 C 6,1 C 63 % 1000,6 hPa 0,0 l/m 0 min 0 min 0,0 UV-I 37 W/m 15,4 km/h (3 Bft)
02.03.2014 17:34 7,8 C 6,1 C 63 % 1000,6 hPa 0,0 l/m 0 min 0 min 0,0 UV-I 35 W/m 7,7 km/h (2 Bft)
02.03.2014 17:36 7,8 C 5,6 C 64 % 1000,5 hPa 0,0 l/m 0 min 0 min 0,0 UV-I 33 W/m 0,0 km/h (0 Bft)
02.03.2014 17:38 7,8 C 5,6 C 64 % 1000,6 hPa 0,0 l/m 0 min 0 min 0,0 UV-I 33 W/m 7,7 km/h (2 Bft)
02.03.2014 17:40 7,7 C 5,6 C 64 % 1000,6 hPa 0,0 l/m 0 min 0 min 0,0 UV-I 32 W/m 10,3 km/h (2 Bft)
02.03.2014 17:42 7,7 C 5,6 C 64 % 1000,6 hPa 0,0 l/m 0 min 0 min 0,0 UV-I 30 W/m 0,0 km/h (0 Bft)
02.03.2014 17:44 7,6 C 5,6 C 64 % 1000,6 hPa 0,0 l/m 0 min 0 min 0,0 UV-I 28 W/m 5,1 km/h (1 Bft)
02.03.2014 17:46 7,6 C 5,6 C 65 % 1000,5 hPa 0,0 l/m 0 min 0 min 0,0 UV-I 25 W/m 0,0 km/h (0 Bft)
02.03.2014 17:48 7,5 C 5,6 C 65 % 1000,5 hPa 0,0 l/m 0 min 0 min 0,0 UV-I 23 W/m 0,0 km/h (0 Bft)
02.03.2014 17:50 7,4 C 5,6 C 65 % 1000,5 hPa 0,0 l/m 0 min 0 min 0,0 UV-I 23 W/m 7,7 km/h (2 Bft)
02.03.2014 17:52 7,4 C 5,6 C 64 % 1000,5 hPa 0,0 l/m 0 min 0 min 0,0 UV-I 19 W/m 10,3 km/h (2 Bft)
02.03.2014 17:54 7,4 C 5,6 C 65 % 1000,5 hPa 0,0 l/m 0 min 0 min 0,0 UV-I 18 W/m 12,9 km/h (3 Bft)
02.03.2014 17:56 7,4 C 5,6 C 65 % 1000,5 hPa 0,0 l/m 0 min 0 min 0,0 UV-I 16 W/m 5,1 km/h (1 Bft)
02.03.2014 17:58 7,3 C 5,6 C 65 % 1000,5 hPa 0,0 l/m 0 min 0 min 0,0 UV-I 14 W/m 2,6 km/h (1 Bft)
02.03.2014 18:00 7,3 C 5,0 C 65 % 1000,5 hPa 0,0 l/m 0 min 0 min 0,0 UV-I 12 W/m 10,3 km/h (2 Bft)
02.03.2014 18:02 7,3 C 5,0 C 65 % 1000,5 hPa 0,0 l/m 0 min 0 min 0,0 UV-I 11 W/m 10,3 km/h (2 Bft)
02.03.2014 18:04 7,3 C 5,0 C 65 % 1000,5 hPa 0,0 l/m 0 min 0 min 0,0 UV-I 9 W/m 7,7 km/h (2 Bft)
02.03.2014 18:06 7,2 C 5,0 C 65 % 1000,5 hPa 0,0 l/m 0 min 0 min 0,0 UV-I 9 W/m 5,1 km/h (1 Bft)
02.03.2014 18:08 7,2 C 5,0 C 66 % 1000,5 hPa 0,0 l/m 0 min 0 min 0,0 UV-I 7 W/m 10,3 km/h (2 Bft)
02.03.2014 18:10 7,1 C 5,0 C 66 % 1000,4 hPa 0,0 l/m 0 min 0 min 0,0 UV-I 5 W/m 10,3 km/h (2 Bft)
02.03.2014 18:12 7,1 C 5,0 C 66 % 1000,5 hPa 0,0 l/m 0 min 0 min 0,0 UV-I 5 W/m 10,3 km/h (2 Bft)
02.03.2014 18:14 7,1 C 5,0 C 66 % 1000,4 hPa 0,0 l/m 0 min 0 min 0,0 UV-I 0 W/m 5,1 km/h (1 Bft)
02.03.2014 18:16 7,0 C 5,0 C 66 % 1000,4 hPa 0,0 l/m 0 min 0 min 0,0 UV-I 0 W/m 5,1 km/h (1 Bft)
02.03.2014 18:18 6,9 C 4,4 C 67 % 1000,4 hPa 0,0 l/m 0 min 0 min 0,0 UV-I 0 W/m 7,7 km/h (2 Bft)
02.03.2014 18:20 6,9 C 4,4 C 67 % 1000,4 hPa 0,0 l/m 0 min 0 min 0,0 UV-I 0 W/m 7,7 km/h (2 Bft)
02.03.2014 18:22 6,8 C 4,4 C 68 % 1000,4 hPa 0,0 l/m 0 min 0 min 0,0 UV-I 0 W/m 10,3 km/h (2 Bft)
02.03.2014 18:24 6,8 C 4,4 C 68 % 1000,4 hPa 0,0 l/m 0 min 0 min 0,0 UV-I 0 W/m 2,6 km/h (1 Bft)
02.03.2014 18:26 6,7 C 4,4 C 68 % 1000,3 hPa 0,0 l/m 0 min 0 min 0,0 UV-I 0 W/m 2,6 km/h (1 Bft)
02.03.2014 18:28 6,6 C 4,4 C 68 % 1000,3 hPa 0,0 l/m 0 min 0 min 0,0 UV-I 0 W/m 5,1 km/h (1 Bft)
02.03.2014 18:30 6,6 C 4,4 C 68 % 1000,3 hPa 0,0 l/m 0 min 0 min 0,0 UV-I 0 W/m 5,1 km/h (1 Bft)
02.03.2014 18:32 6,5 C 4,4 C 69 % 1000,2 hPa 0,0 l/m 0 min 0 min 0,0 UV-I 0 W/m 2,6 km/h (1 Bft)
02.03.2014 18:34 6,4 C 4,4 C 69 % 1000,3 hPa 0,0 l/m 0 min 0 min 0,0 UV-I 0 W/m 7,7 km/h (2 Bft)
02.03.2014 18:36 6,4 C 4,4 C 69 % 1000,3 hPa 0,0 l/m 0 min 0 min 0,0 UV-I 0 W/m 5,1 km/h (1 Bft)
02.03.2014 18:38 6,3 C 4,4 C 70 % 1000,2 hPa 0,0 l/m 0 min 0 min 0,0 UV-I 0 W/m 12,9 km/h (3 Bft)
02.03.2014 18:40 6,2 C 3,9 C 70 % 1000,2 hPa 0,0 l/m 0 min 0 min 0,0 UV-I 0 W/m 10,3 km/h (2 Bft)
02.03.2014 18:42 6,2 C 3,9 C 70 % 1000,1 hPa 0,0 l/m 0 min 0 min 0,0 UV-I 0 W/m 12,9 km/h (3 Bft)
02.03.2014 18:44 6,2 C 3,9 C 70 % 1000,1 hPa 0,0 l/m 0 min 0 min 0,0 UV-I 0 W/m 10,3 km/h (2 Bft)
02.03.2014 18:46 6,1 C 3,9 C 70 % 1000,1 hPa 0,0 l/m 0 min 0 min 0,0 UV-I 0 W/m 10,3 km/h (2 Bft)
02.03.2014 18:48 6,1 C 3,9 C 70 % 1000,1 hPa 0,0 l/m 0 min 0 min 0,0 UV-I 0 W/m 15,4 km/h (3 Bft)
02.03.2014 18:50 6,1 C 3,9 C 70 % 1000,1 hPa 0,0 l/m 0 min 0 min 0,0 UV-I 0 W/m 18,0 km/h (3 Bft)
02.03.2014 18:52 6,1 C 3,9 C 70 % 1000,0 hPa 0,0 l/m 0 min 0 min 0,0 UV-I 0 W/m 12,9 km/h (3 Bft)
02.03.2014 18:54 6,0 C 3,9 C 71 % 999,9 hPa 0,0 l/m 0 min 0 min 0,0 UV-I 0 W/m 20,6 km/h (4 Bft)
02.03.2014 18:56 5,9 C 3,9 C 71 % 999,9 hPa 0,0 l/m 0 min 0 min 0,0 UV-I 0 W/m 12,9 km/h (3 Bft)
02.03.2014 18:58 5,9 C 3,9 C 71 % 999,9 hPa 0,0 l/m 0 min 0 min 0,0 UV-I 0 W/m 18,0 km/h (3 Bft)
02.03.2014 19:00 5,8 C 3,9 C 72 % 999,9 hPa 0,0 l/m 0 min 0 min 0,0 UV-I 0 W/m 15,4 km/h (3 Bft)
02.03.2014 19:02 5,8 C 3,9 C 72 % 999,8 hPa 0,0 l/m 0 min 0 min 0,0 UV-I 0 W/m 20,6 km/h (4 Bft)
02.03.2014 19:04 5,7 C 3,9 C 72 % 999,7 hPa 0,0 l/m 0 min 0 min 0,0 UV-I 0 W/m 15,4 km/h (3 Bft)
02.03.2014 19:06 5,7 C 3,9 C 73 % 999,7 hPa 0,0 l/m 0 min 0 min 0,0 UV-I 0 W/m 10,3 km/h (2 Bft)
02.03.2014 19:08 5,6 C 3,9 C 73 % 999,7 hPa 0,0 l/m 0 min 0 min 0,0 UV-I 0 W/m 12,9 km/h (3 Bft)
02.03.2014 19:10 5,5 C 3,9 C 73 % 999,7 hPa 0,0 l/m 0 min 0 min 0,0 UV-I 0 W/m 20,6 km/h (4 Bft)
02.03.2014 19:12 5,4 C 3,9 C 74 % 999,7 hPa 0,0 l/m 0 min 0 min 0,0 UV-I 0 W/m 20,6 km/h (4 Bft)
02.03.2014 19:14 5,4 C 3,9 C 74 % 999,6 hPa 0,0 l/m 0 min 0 min 0,0 UV-I 0 W/m 18,0 km/h (3 Bft)
02.03.2014 19:16 5,4 C 3,3 C 74 % 999,6 hPa 0,0 l/m 0 min 0 min 0,0 UV-I 0 W/m 15,4 km/h (3 Bft)
02.03.2014 19:18 5,3 C 3,3 C 74 % 999,6 hPa 0,0 l/m 0 min 0 min 0,0 UV-I 0 W/m 12,9 km/h (3 Bft)
02.03.2014 19:20 5,3 C 3,3 C 74 % 999,6 hPa 0,0 l/m 0 min 0 min 0,0 UV-I 0 W/m 20,6 km/h (4 Bft)
02.03.2014 19:22 5,2 C 3,3 C 75 % 999,6 hPa 0,0 l/m 0 min 0 min 0,0 UV-I 0 W/m 12,9 km/h (3 Bft)
02.03.2014 19:24 5,2 C 3,3 C 75 % 999,6 hPa 0,0 l/m 0 min 0 min 0,0 UV-I 0 W/m 12,9 km/h (3 Bft)
02.03.2014 19:26 5,1 C 3,3 C 75 % 999,5 hPa 0,0 l/m 0 min 0 min 0,0 UV-I 0 W/m 20,6 km/h (4 Bft)
02.03.2014 19:28 5,1 C 3,3 C 75 % 999,5 hPa 0,0 l/m 0 min 0 min 0,0 UV-I 0 W/m 23,2 km/h (4 Bft)
02.03.2014 19:30 5,0 C 3,3 C 76 % 999,4 hPa 0,0 l/m 0 min 0 min 0,0 UV-I 0 W/m 12,9 km/h (3 Bft)
02.03.2014 19:32 4,9 C 3,3 C 76 % 999,4 hPa 0,0 l/m 0 min 0 min 0,0 UV-I 0 W/m 18,0 km/h (3 Bft)
02.03.2014 19:34 4,9 C 3,3 C 76 % 999,4 hPa 0,0 l/m 0 min 0 min 0,0 UV-I 0 W/m 18,0 km/h (3 Bft)
02.03.2014 19:36 4,9 C 3,3 C 76 % 999,3 hPa 0,0 l/m 0 min 0 min 0,0 UV-I 0 W/m 18,0 km/h (3 Bft)
02.03.2014 19:38 4,9 C 3,3 C 76 % 999,3 hPa 0,0 l/m 0 min 0 min 0,0 UV-I 0 W/m 18,0 km/h (3 Bft)
02.03.2014 19:40 4,8 C 3,3 C 76 % 999,3 hPa 0,0 l/m 0 min 0 min 0,0 UV-I 0 W/m 15,4 km/h (3 Bft)
02.03.2014 19:42 4,8 C 3,3 C 76 % 999,2 hPa 0,0 l/m 0 min 0 min 0,0 UV-I 0 W/m 23,2 km/h (4 Bft)
02.03.2014 19:44 4,8 C 3,3 C 76 % 999,2 hPa 0,0 l/m 0 min 0 min 0,0 UV-I 0 W/m 18,0 km/h (3 Bft)
02.03.2014 19:46 4,8 C 3,3 C 76 % 999,1 hPa 0,0 l/m 0 min 0 min 0,0 UV-I 0 W/m 20,6 km/h (4 Bft)
02.03.2014 19:48 4,8 C 3,3 C 76 % 999,1 hPa 0,0 l/m 0 min 0 min 0,0 UV-I 0 W/m 20,6 km/h (4 Bft)
02.03.2014 19:50 4,8 C 3,3 C 76 % 999,0 hPa 0,0 l/m 0 min 0 min 0,0 UV-I 0 W/m 25,7 km/h (4 Bft)
02.03.2014 19:52 4,8 C 3,3 C 76 % 999,0 hPa 0,0 l/m 0 min 0 min 0,0 UV-I 0 W/m 20,6 km/h (4 Bft)
02.03.2014 19:54 4,8 C 3,3 C 76 % 999,0 hPa 0,0 l/m 0 min 0 min 0,0 UV-I 0 W/m 25,7 km/h (4 Bft)
02.03.2014 19:56 4,8 C 3,3 C 76 % 999,0 hPa 0,0 l/m 0 min 0 min 0,0 UV-I 0 W/m 20,6 km/h (4 Bft)
02.03.2014 19:58 4,8 C 3,3 C 76 % 999,0 hPa 0,0 l/m 0 min 0 min 0,0 UV-I 0 W/m 30,9 km/h (5 Bft)
02.03.2014 20:00 4,9 C 3,3 C 76 % 998,9 hPa 0,0 l/m 0 min 0 min 0,0 UV-I 0 W/m 20,6 km/h (4 Bft)
02.03.2014 20:02 4,8 C 3,3 C 76 % 999,0 hPa 0,0 l/m 0 min 0 min 0,0 UV-I 0 W/m 12,9 km/h (3 Bft)
02.03.2014 20:04 4,8 C 3,3 C 76 % 999,0 hPa 0,0 l/m 0 min 0 min 0,0 UV-I 0 W/m 10,3 km/h (2 Bft)
02.03.2014 20:06 4,8 C 3,3 C 76 % 999,0 hPa 0,0 l/m 0 min 0 min 0,0 UV-I 0 W/m 10,3 km/h (2 Bft)
02.03.2014 20:08 4,8 C 3,3 C 76 % 999,0 hPa 0,0 l/m 0 min 0 min 0,0 UV-I 0 W/m 20,6 km/h (4 Bft)
02.03.2014 20:10 4,8 C 3,3 C 77 % 999,0 hPa 0,0 l/m 0 min 0 min 0,0 UV-I 0 W/m 28,3 km/h (4 Bft)
02.03.2014 20:12 4,8 C 3,3 C 77 % 998,9 hPa 0,0 l/m 0 min 0 min 0,0 UV-I 0 W/m 18,0 km/h (3 Bft)
02.03.2014 20:14 4,8 C 3,3 C 77 % 998,9 hPa 0,0 l/m 0 min 0 min 0,0 UV-I 0 W/m 15,4 km/h (3 Bft)
02.03.2014 20:16 4,8 C 3,3 C 76 % 998,9 hPa 0,0 l/m 0 min 0 min 0,0 UV-I 0 W/m 25,7 km/h (4 Bft)
02.03.2014 20:18 4,9 C 3,3 C 76 % 998,8 hPa 0,0 l/m 0 min 0 min 0,0 UV-I 0 W/m 23,2 km/h (4 Bft)
02.03.2014 20:20 4,8 C 3,3 C 76 % 998,8 hPa 0,0 l/m 0 min 0 min 0,0 UV-I 0 W/m 25,7 km/h (4 Bft)
02.03.2014 20:22 4,8 C 3,3 C 76 % 998,8 hPa 0,0 l/m 0 min 0 min 0,0 UV-I 0 W/m 15,4 km/h (3 Bft)
02.03.2014 20:24 4,8 C 3,3 C 76 % 998,8 hPa 0,0 l/m 0 min 0 min 0,0 UV-I 0 W/m 5,1 km/h (1 Bft)
02.03.2014 20:26 4,8 C 3,3 C 76 % 998,7 hPa 0,0 l/m 0 min 0 min 0,0 UV-I 0 W/m 25,7 km/h (4 Bft)
02.03.2014 20:28 4,8 C 3,3 C 76 % 998,8 hPa 0,0 l/m 0 min 0 min 0,0 UV-I 0 W/m 20,6 km/h (4 Bft)
02.03.2014 20:30 4,8 C 3,3 C 76 % 998,7 hPa 0,0 l/m 0 min 0 min 0,0 UV-I 0 W/m 23,2 km/h (4 Bft)
02.03.2014 20:32 4,8 C 3,3 C 76 % 998,6 hPa 0,0 l/m 0 min 0 min 0,0 UV-I 0 W/m 15,4 km/h (3 Bft)
02.03.2014 20:34 4,8 C 3,3 C 76 % 998,6 hPa 0,0 l/m 0 min 0 min 0,0 UV-I 0 W/m 20,6 km/h (4 Bft)
02.03.2014 20:36 4,8 C 3,3 C 76 % 998,6 hPa 0,0 l/m 0 min 0 min 0,0 UV-I 0 W/m 23,2 km/h (4 Bft)
02.03.2014 20:38 4,8 C 3,3 C 76 % 998,5 hPa 0,0 l/m 0 min 0 min 0,0 UV-I 0 W/m 12,9 km/h (3 Bft)
02.03.2014 20:40 4,8 C 3,3 C 76 % 998,5 hPa 0,0 l/m 0 min 0 min 0,0 UV-I 0 W/m 18,0 km/h (3 Bft)
02.03.2014 20:42 4,8 C 3,3 C 76 % 998,4 hPa 0,0 l/m 0 min 0 min 0,0 UV-I 0 W/m 12,9 km/h (3 Bft)
02.03.2014 20:44 4,8 C 3,3 C 76 % 998,4 hPa 0,0 l/m 0 min 0 min 0,0 UV-I 0 W/m 15,4 km/h (3 Bft)
02.03.2014 20:46 4,8 C 3,3 C 76 % 998,3 hPa 0,0 l/m 0 min 0 min 0,0 UV-I 0 W/m 10,3 km/h (2 Bft)
02.03.2014 20:48 4,8 C 3,3 C 76 % 998,3 hPa 0,0 l/m 0 min 0 min 0,0 UV-I 0 W/m 18,0 km/h (3 Bft)
02.03.2014 20:50 4,8 C 3,3 C 76 % 998,3 hPa 0,0 l/m 0 min 0 min 0,0 UV-I 0 W/m 15,4 km/h (3 Bft)
02.03.2014 20:52 4,8 C 3,3 C 76 % 998,3 hPa 0,0 l/m 0 min 0 min 0,0 UV-I 0 W/m 20,6 km/h (4 Bft)
02.03.2014 20:54 4,8 C 2,8 C 76 % 998,3 hPa 0,0 l/m 0 min 0 min 0,0 UV-I 0 W/m 12,9 km/h (3 Bft)
02.03.2014 20:56 4,8 C 3,3 C 76 % 998,3 hPa 0,0 l/m 0 min 0 min 0,0 UV-I 0 W/m 15,4 km/h (3 Bft)
02.03.2014 20:58 4,7 C 2,8 C 76 % 998,3 hPa 0,0 l/m 0 min 0 min 0,0 UV-I 0 W/m 15,4 km/h (3 Bft)
02.03.2014 21:00 4,7 C 2,8 C 76 % 998,2 hPa 0,0 l/m 0 min 0 min 0,0 UV-I 0 W/m 18,0 km/h (3 Bft)
02.03.2014 21:02 4,7 C 2,8 C 76 % 998,1 hPa 0,0 l/m 0 min 0 min 0,0 UV-I 0 W/m 12,9 km/h (3 Bft)
02.03.2014 21:04 4,7 C 2,8 C 76 % 998,1 hPa 0,0 l/m 0 min 0 min 0,0 UV-I 0 W/m 15,4 km/h (3 Bft)
02.03.2014 21:06 4,7 C 2,8 C 76 % 998,1 hPa 0,0 l/m 0 min 0 min 0,0 UV-I 0 W/m 10,3 km/h (2 Bft)
02.03.2014 21:08 4,6 C 2,8 C 76 % 998,1 hPa 0,0 l/m 0 min 0 min 0,0 UV-I 0 W/m 20,6 km/h (4 Bft)
02.03.2014 21:10 4,6 C 2,8 C 76 % 998,1 hPa 0,0 l/m 0 min 0 min 0,0 UV-I 0 W/m 10,3 km/h (2 Bft)
02.03.2014 21:12 4,6 C 2,8 C 76 % 998,0 hPa 0,0 l/m 0 min 0 min 0,0 UV-I 0 W/m 12,9 km/h (3 Bft)
02.03.2014 21:14 4,5 C 2,8 C 76 % 998,0 hPa 0,0 l/m 0 min 0 min 0,0 UV-I 0 W/m 10,3 km/h (2 Bft)
02.03.2014 21:16 4,4 C 2,8 C 76 % 998,0 hPa 0,0 l/m 0 min 0 min 0,0 UV-I 0 W/m 12,9 km/h (3 Bft)
02.03.2014 21:18 4,4 C 2,8 C 77 % 997,9 hPa 0,0 l/m 0 min 0 min 0,0 UV-I 0 W/m 12,9 km/h (3 Bft)
02.03.2014 21:20 4,4 C 2,8 C 76 % 997,9 hPa 0,0 l/m 0 min 0 min 0,0 UV-I 0 W/m 5,1 km/h (1 Bft)
02.03.2014 21:22 4,4 C 2,8 C 76 % 997,7 hPa 0,0 l/m 0 min 0 min 0,0 UV-I 0 W/m 7,7 km/h (2 Bft)
02.03.2014 21:24 4,3 C 2,8 C 77 % 997,7 hPa 0,0 l/m 0 min 0 min 0,0 UV-I 0 W/m 10,3 km/h (2 Bft)
02.03.2014 21:26 4,3 C 2,8 C 77 % 997,7 hPa 0,0 l/m 0 min 0 min 0,0 UV-I 0 W/m 15,4 km/h (3 Bft)
02.03.2014 21:28 4,3 C 2,8 C 77 % 997,7 hPa 0,0 l/m 0 min 0 min 0,0 UV-I 0 W/m 12,9 km/h (3 Bft)
02.03.2014 21:30 4,2 C 2,8 C 77 % 997,6 hPa 0,0 l/m 0 min 0 min 0,0 UV-I 0 W/m 12,9 km/h (3 Bft)
02.03.2014 21:32 4,2 C 2,8 C 77 % 997,6 hPa 0,0 l/m 0 min 0 min 0,0 UV-I 0 W/m 10,3 km/h (2 Bft)
02.03.2014 21:34 4,2 C 2,2 C 77 % 997,6 hPa 0,0 l/m 0 min 0 min 0,0 UV-I 0 W/m 10,3 km/h (2 Bft)
02.03.2014 21:36 4,2 C 2,2 C 77 % 997,6 hPa 0,0 l/m 0 min 0 min 0,0 UV-I 0 W/m 5,1 km/h (1 Bft)
02.03.2014 21:38 4,1 C 2,2 C 77 % 997,5 hPa 0,0 l/m 0 min 0 min 0,0 UV-I 0 W/m 5,1 km/h (1 Bft)
02.03.2014 21:40 4,1 C 2,2 C 77 % 997,5 hPa 0,0 l/m 0 min 0 min 0,0 UV-I 0 W/m 7,7 km/h (2 Bft)
02.03.2014 21:42 4,0 C 2,2 C 77 % 997,4 hPa 0,0 l/m 0 min 0 min 0,0 UV-I 0 W/m 12,9 km/h (3 Bft)
02.03.2014 21:44 4,0 C 2,2 C 77 % 997,5 hPa 0,0 l/m 0 min 0 min 0,0 UV-I 0 W/m 12,9 km/h (3 Bft)
02.03.2014 21:46 4,0 C 2,2 C 77 % 997,4 hPa 0,0 l/m 0 min 0 min 0,0 UV-I 0 W/m 7,7 km/h (2 Bft)
02.03.2014 21:48 4,1 C 2,2 C 77 % 997,3 hPa 0,0 l/m 0 min 0 min 0,0 UV-I 0 W/m 18,0 km/h (3 Bft)
02.03.2014 21:50 4,1 C 2,2 C 77 % 997,3 hPa 0,0 l/m 0 min 0 min 0,0 UV-I 0 W/m 12,9 km/h (3 Bft)
02.03.2014 21:52 4,1 C 2,2 C 77 % 997,3 hPa 0,0 l/m 0 min 0 min 0,0 UV-I 0 W/m 12,9 km/h (3 Bft)
02.03.2014 21:54 4,1 C 2,2 C 77 % 997,2 hPa 0,0 l/m 0 min 0 min 0,0 UV-I 0 W/m 15,4 km/h (3 Bft)
02.03.2014 21:56 4,2 C 2,8 C 77 % 997,2 hPa 0,0 l/m 0 min 0 min 0,0 UV-I 0 W/m 12,9 km/h (3 Bft)
02.03.2014 21:58 4,2 C 2,8 C 77 % 997,2 hPa 0,0 l/m 0 min 0 min 0,0 UV-I 0 W/m 7,7 km/h (2 Bft)
02.03.2014 22:00 4,2 C 2,2 C 77 % 997,2 hPa 0,0 l/m 0 min 0 min 0,0 UV-I 0 W/m 10,3 km/h (2 Bft)
02.03.2014 22:02 4,2 C 2,2 C 76 % 997,2 hPa 0,0 l/m 0 min 0 min 0,0 UV-I 0 W/m 7,7 km/h (2 Bft)
02.03.2014 22:04 4,2 C 2,2 C 77 % 997,1 hPa 0,0 l/m 0 min 0 min 0,0 UV-I 0 W/m 10,3 km/h (2 Bft)
02.03.2014 22:06 4,1 C 2,2 C 77 % 997,1 hPa 0,0 l/m 0 min 0 min 0,0 UV-I 0 W/m 7,7 km/h (2 Bft)
02.03.2014 22:08 4,1 C 2,2 C 77 % 997,1 hPa 0,0 l/m 0 min 0 min 0,0 UV-I 0 W/m 7,7 km/h (2 Bft)
02.03.2014 22:10 4,1 C 2,2 C 77 % 997,1 hPa 0,0 l/m 0 min 0 min 0,0 UV-I 0 W/m 7,7 km/h (2 Bft)
02.03.2014 22:12 4,1 C 2,2 C 77 % 997,1 hPa 0,0 l/m 0 min 0 min 0,0 UV-I 0 W/m 10,3 km/h (2 Bft)
02.03.2014 22:14 4,1 C 2,2 C 77 % 997,0 hPa 0,0 l/m 0 min 0 min 0,0 UV-I 0 W/m 18,0 km/h (3 Bft)
02.03.2014 22:16 4,1 C 2,2 C 78 % 997,0 hPa 0,0 l/m 0 min 0 min 0,0 UV-I 0 W/m 18,0 km/h (3 Bft)
02.03.2014 22:18 4,2 C 2,2 C 78 % 996,9 hPa 0,0 l/m 0 min 0 min 0,0 UV-I 0 W/m 12,9 km/h (3 Bft)
02.03.2014 22:20 4,2 C 2,2 C 78 % 996,9 hPa 0,0 l/m 0 min 0 min 0,0 UV-I 0 W/m 10,3 km/h (2 Bft)
02.03.2014 22:22 4,2 C 2,2 C 78 % 996,7 hPa 0,0 l/m 0 min 0 min 0,0 UV-I 0 W/m 12,9 km/h (3 Bft)
02.03.2014 22:24 4,2 C 2,2 C 78 % 996,7 hPa 0,0 l/m 0 min 0 min 0,0 UV-I 0 W/m 10,3 km/h (2 Bft)
02.03.2014 22:26 4,1 C 2,2 C 78 % 996,7 hPa 0,0 l/m 0 min 0 min 0,0 UV-I 0 W/m 15,4 km/h (3 Bft)
02.03.2014 22:28 4,1 C 2,8 C 78 % 996,6 hPa 0,0 l/m 0 min 0 min 0,0 UV-I 0 W/m 18,0 km/h (3 Bft)
02.03.2014 22:30 4,1 C 2,2 C 78 % 996,7 hPa 0,0 l/m 0 min 0 min 0,0 UV-I 0 W/m 7,7 km/h (2 Bft)
02.03.2014 22:32 4,1 C 2,8 C 78 % 996,6 hPa 0,0 l/m 0 min 0 min 0,0 UV-I 0 W/m 15,4 km/h (3 Bft)
02.03.2014 22:34 4,1 C 2,8 C 78 % 996,6 hPa 0,0 l/m 0 min 0 min 0,0 UV-I 0 W/m 12,9 km/h (3 Bft)
02.03.2014 22:36 4,1 C 2,2 C 79 % 996,4 hPa 0,0 l/m 0 min 0 min 0,0 UV-I 0 W/m 15,4 km/h (3 Bft)
02.03.2014 22:38 4,1 C 2,2 C 79 % 996,4 hPa 0,0 l/m 0 min 0 min 0,0 UV-I 0 W/m 15,4 km/h (3 Bft)
02.03.2014 22:40 4,1 C 2,2 C 79 % 996,3 hPa 0,0 l/m 0 min 0 min 0,0 UV-I 0 W/m 20,6 km/h (4 Bft)
02.03.2014 22:42 4,1 C 2,2 C 79 % 996,3 hPa 0,0 l/m 0 min 0 min 0,0 UV-I 0 W/m 23,2 km/h (4 Bft)
02.03.2014 22:44 4,1 C 2,8 C 79 % 996,3 hPa 0,0 l/m 0 min 0 min 0,0 UV-I 0 W/m 18,0 km/h (3 Bft)
02.03.2014 22:46 4,1 C 2,2 C 79 % 996,2 hPa 0,0 l/m 0 min 0 min 0,0 UV-I 0 W/m 15,4 km/h (3 Bft)
02.03.2014 22:48 4,0 C 2,2 C 79 % 996,2 hPa 0,0 l/m 0 min 0 min 0,0 UV-I 0 W/m 15,4 km/h (3 Bft)
02.03.2014 22:50 4,0 C 2,2 C 79 % 996,2 hPa 0,0 l/m 0 min 0 min 0,0 UV-I 0 W/m 15,4 km/h (3 Bft)
02.03.2014 22:52 4,0 C 2,2 C 80 % 996,1 hPa 0,0 l/m 0 min 0 min 0,0 UV-I 0 W/m 15,4 km/h (3 Bft)
02.03.2014 22:54 4,0 C 2,2 C 80 % 996,0 hPa 0,0 l/m 0 min 0 min 0,0 UV-I 0 W/m 18,0 km/h (3 Bft)
02.03.2014 22:56 3,9 C 2,2 C 80 % 995,9 hPa 0,0 l/m 0 min 0 min 0,0 UV-I 0 W/m 25,7 km/h (4 Bft)
02.03.2014 22:58 3,9 C 2,2 C 80 % 995,9 hPa 0,0 l/m 0 min 0 min 0,0 UV-I 0 W/m 20,6 km/h (4 Bft)
02.03.2014 23:00 3,9 C 2,2 C 80 % 995,8 hPa 0,0 l/m 0 min 0 min 0,0 UV-I 0 W/m 18,0 km/h (3 Bft)
02.03.2014 23:02 3,9 C 2,2 C 80 % 995,8 hPa 0,0 l/m 0 min 0 min 0,0 UV-I 0 W/m 20,6 km/h (4 Bft)
02.03.2014 23:04 3,9 C 2,2 C 80 % 995,8 hPa 0,0 l/m 0 min 0 min 0,0 UV-I 0 W/m 15,4 km/h (3 Bft)
02.03.2014 23:06 3,9 C 2,2 C 80 % 995,8 hPa 0,0 l/m 0 min 0 min 0,0 UV-I 0 W/m 25,7 km/h (4 Bft)
02.03.2014 23:08 4,0 C 2,2 C 80 % 995,7 hPa 0,0 l/m 0 min 0 min 0,0 UV-I 0 W/m 25,7 km/h (4 Bft)
02.03.2014 23:10 4,0 C 2,2 C 80 % 995,7 hPa 0,0 l/m 0 min 0 min 0,0 UV-I 0 W/m 23,2 km/h (4 Bft)
02.03.2014 23:12 4,0 C 2,2 C 80 % 995,7 hPa 0,0 l/m 0 min 0 min 0,0 UV-I 0 W/m 18,0 km/h (3 Bft)
02.03.2014 23:14 4,0 C 2,2 C 80 % 995,7 hPa 0,0 l/m 0 min 0 min 0,0 UV-I 0 W/m 18,0 km/h (3 Bft)
02.03.2014 23:16 4,0 C 2,2 C 80 % 995,7 hPa 0,0 l/m 0 min 0 min 0,0 UV-I 0 W/m 23,2 km/h (4 Bft)
02.03.2014 23:18 4,0 C 2,8 C 80 % 995,7 hPa 0,0 l/m 0 min 0 min 0,0 UV-I 0 W/m 25,7 km/h (4 Bft)
02.03.2014 23:20 4,0 C 2,2 C 80 % 995,6 hPa 0,0 l/m 0 min 0 min 0,0 UV-I 0 W/m 20,6 km/h (4 Bft)
02.03.2014 23:22 4,0 C 2,2 C 81 % 995,6 hPa 0,0 l/m 0 min 0 min 0,0 UV-I 0 W/m 28,3 km/h (4 Bft)
02.03.2014 23:24 4,0 C 2,2 C 81 % 995,5 hPa 0,0 l/m 0 min 0 min 0,0 UV-I 0 W/m 10,3 km/h (2 Bft)
02.03.2014 23:26 3,9 C 2,2 C 81 % 995,4 hPa 0,0 l/m 0 min 0 min 0,0 UV-I 0 W/m 15,4 km/h (3 Bft)
02.03.2014 23:28 3,9 C 2,2 C 81 % 995,4 hPa 0,0 l/m 0 min 0 min 0,0 UV-I 0 W/m 18,0 km/h (3 Bft)
02.03.2014 23:30 3,9 C 2,2 C 81 % 995,3 hPa 0,0 l/m 0 min 0 min 0,0 UV-I 0 W/m 15,4 km/h (3 Bft)
02.03.2014 23:32 3,9 C 2,2 C 81 % 995,3 hPa 0,0 l/m 0 min 0 min 0,0 UV-I 0 W/m 20,6 km/h (4 Bft)
02.03.2014 23:34 3,8 C 2,2 C 81 % 995,3 hPa 0,0 l/m 0 min 0 min 0,0 UV-I 0 W/m 18,0 km/h (3 Bft)
02.03.2014 23:36 3,8 C 2,2 C 81 % 995,3 hPa 0,0 l/m 0 min 0 min 0,0 UV-I 0 W/m 7,7 km/h (2 Bft)
02.03.2014 23:38 3,8 C 2,2 C 81 % 995,2 hPa 0,0 l/m 0 min 0 min 0,0 UV-I 0 W/m 12,9 km/h (3 Bft)
02.03.2014 23:40 3,8 C 2,2 C 81 % 995,1 hPa 0,0 l/m 0 min 0 min 0,0 UV-I 0 W/m 20,6 km/h (4 Bft)
02.03.2014 23:42 3,7 C 2,2 C 82 % 995,1 hPa 0,0 l/m 0 min 0 min 0,0 UV-I 0 W/m 12,9 km/h (3 Bft)
02.03.2014 23:44 3,7 C 2,2 C 82 % 995,1 hPa 0,0 l/m 0 min 0 min 0,0 UV-I 0 W/m 18,0 km/h (3 Bft)
02.03.2014 23:46 3,7 C 2,2 C 82 % 995,0 hPa 0,0 l/m 0 min 0 min 0,0 UV-I 0 W/m 20,6 km/h (4 Bft)
02.03.2014 23:48 3,7 C 2,2 C 82 % 994,9 hPa 0,0 l/m 0 min 0 min 0,0 UV-I 0 W/m 10,3 km/h (2 Bft)
02.03.2014 23:50 3,7 C 2,2 C 82 % 994,9 hPa 0,0 l/m 0 min 0 min 0,0 UV-I 0 W/m 15,4 km/h (3 Bft)
02.03.2014 23:52 3,6 C 2,2 C 82 % 994,9 hPa 0,0 l/m 0 min 0 min 0,0 UV-I 0 W/m 12,9 km/h (3 Bft)
02.03.2014 23:54 3,6 C 2,2 C 82 % 994,9 hPa 0,0 l/m 0 min 0 min 0,0 UV-I 0 W/m 5,1 km/h (1 Bft)
02.03.2014 23:56 3,6 C 2,2 C 82 % 994,8 hPa 0,0 l/m 0 min 0 min 0,0 UV-I 0 W/m 15,4 km/h (3 Bft)
02.03.2014 23:58 3,5 C 2,2 C 82 % 994,8 hPa 0,0 l/m 0 min 0 min 0,0 UV-I 0 W/m 12,9 km/h (3 Bft)
_ Min-Zeit 07:56 07:50 14:20 23:56 - - - - - 00:24
Minimum _ 1,9 C 0,0 C 57 % 994,8 hPa - - - - - 0,0 km/h (0 Bft)
_ Max-Zeit 15:08 15:00 06:54 09:18 00:00 08:28 00:00 13:10 13:40 19:58
Maximum _ 10,4 C 9,4 C 96 % 1004,7 hPa 0,0 l/m 2 min 0 min 1,0 UV-I 621 W/m 30,9 km/h
S-SO (5 Bft)
Durchschnitt _ 5,6 C 4,1 C 81 % 1001,5 hPa #0,0 l/m #6:24 h #0 min. 0,7 UV-I 253 W/m 8,7 km/h (2 Bft)
© 2014 W. Hausmann